Observation data for Estelline on 06/25/2019      Previous  Date  Next       Current Mesonet Observations  Soil Data  Daily Summary Page  Observations in Plain Language
KES1 250500Z 13012KT 25/19 A2992 RMK A01 T02530188  RH  067%=      5-min Rain = 0
KES1 250501Z 13011KT 25/19 A2992 RMK A01 T02530188  RH  067%=      5-min Rain = 0
KES1 250502Z 13011KT 25/19 A2992 RMK A01 T02530189  RH  068%=      5-min Rain = 0
KES1 250503Z 13010KT 25/19 A2992 RMK A01 T02530189  RH  068%=      5-min Rain = 0
KES1 250504Z 13008KT 25/19 A2992 RMK A01 T02530189  RH  068%=      5-min Rain = 0
KES1 250505Z 13009KT 25/19 A2992 RMK A01 T02520189  RH  068%=      5-min Rain = 0
KES1 250506Z 13010KT 25/19 A2992 RMK A01 T02520189  RH  068%=      5-min Rain = 0
KES1 250507Z 12009KT 25/19 A2992 RMK A01 T02520190  RH  069%=      5-min Rain = 0
KES1 250508Z 12008KT 25/19 A2992 RMK A01 T02520190  RH  069%=      5-min Rain = 0
KES1 250509Z 12009KT 25/19 A2992 RMK A01 T02510190  RH  069%=      5-min Rain = 0
KES1 250510Z 13009KT 25/19 A2992 RMK A01 T02510192  RH  069%=      5-min Rain = 0
KES1 250511Z 12009KT 25/19 A2992 RMK A01 T02510192  RH  070%=      5-min Rain = 0
KES1 250512Z 13009KT 25/19 A2992 RMK A01 T02510192  RH  070%=      5-min Rain = 0
KES1 250513Z 12009KT 25/19 A2992 RMK A01 T02510192  RH  070%=      5-min Rain = 0
KES1 250514Z 13008G13KT 25/19 A2992 RMK A01 T02510192  RH  070%=      5-min Rain = 0
KES1 250515Z 12011KT 25/19 A2992 RMK A01 T02500192  RH  070%=      5-min Rain = 0
KES1 250516Z 13010KT 25/19 A2991 RMK A01 T02500193  RH  070%=      5-min Rain = 0
KES1 250517Z 13008KT 25/19 A2991 RMK A01 T02500193  RH  070%=      5-min Rain = 0
KES1 250518Z 13009KT 25/19 A2991 RMK A01 T02500193  RH  071%=      5-min Rain = 0
KES1 250519Z 12009KT 25/19 A2991 RMK A01 T02490193  RH  071%=      5-min Rain = 0
KES1 250520Z 13010KT 25/19 A2991 RMK A01 T02500194  RH  071%=      5-min Rain = 0
KES1 250521Z 13010KT 25/19 A2991 RMK A01 T02500194  RH  071%=      5-min Rain = 0
KES1 250522Z 13011KT 25/19 A2991 RMK A01 T02490194  RH  071%=      5-min Rain = 0
KES1 250523Z 13012KT 25/19 A2991 RMK A01 T02490194  RH  071%=      5-min Rain = 0
KES1 250524Z 13010KT 25/19 A2991 RMK A01 T02490194  RH  071%=      5-min Rain = 0
KES1 250525Z 13009KT 25/19 A2991 RMK A01 T02490194  RH  071%=      5-min Rain = 0
KES1 250526Z 13010KT 25/19 A2991 RMK A01 T02490194  RH  071%=      5-min Rain = 0
KES1 250527Z 13010KT 25/19 A2991 RMK A01 T02490194  RH  072%=      5-min Rain = 0
KES1 250528Z 13008KT 25/20 A2991 RMK A01 T02490195  RH  072%=      5-min Rain = 0
KES1 250529Z 12008KT 25/19 A2991 RMK A01 T02480194  RH  072%=      5-min Rain = 0
KES1 250530Z 12008KT 25/19 A2991 RMK A01 T02480194  RH  072%=      5-min Rain = 0
KES1 250531Z 13008KT 25/19 A2991 RMK A01 T02470194  RH  072%=      5-min Rain = 0
KES1 250532Z 13009KT 25/19 A2991 RMK A01 T02470194  RH  072%=      5-min Rain = 0
KES1 250533Z 13008KT 25/20 A2991 RMK A01 T02470195  RH  073%=      5-min Rain = 0
KES1 250534Z 13009KT 25/20 A2991 RMK A01 T02470195  RH  073%=      5-min Rain = 0
KES1 250535Z 13009KT 25/20 A2991 RMK A01 T02470195  RH  073%=      5-min Rain = 0
KES1 250536Z 13008KT 25/20 A2991 RMK A01 T02470195  RH  073%=      5-min Rain = 0
KES1 250537Z 13009KT 25/20 A2991 RMK A01 T02470195  RH  073%=      5-min Rain = 0
KES1 250538Z 13008KT 25/20 A2991 RMK A01 T02470195  RH  073%=      5-min Rain = 0
KES1 250539Z 13008KT 25/20 A2991 RMK A01 T02460195  RH  073%=      5-min Rain = 0
KES1 250540Z 13008KT 25/20 A2991 RMK A01 T02460195  RH  073%=      5-min Rain = 0
KES1 250541Z 13008KT 25/20 A2991 RMK A01 T02460195  RH  073%=      5-min Rain = 0
KES1 250542Z 12007KT 25/20 A2991 RMK A01 T02450195  RH  074%=      5-min Rain = 0
KES1 250543Z 13009KT 25/20 A2991 RMK A01 T02450195  RH  074%=      5-min Rain = 0
KES1 250544Z 12008KT 25/20 A2991 RMK A01 T02450195  RH  074%=      5-min Rain = 0
KES1 250545Z 13008KT 25/20 A2991 RMK A01 T02450196  RH  074%=      5-min Rain = 0
KES1 250546Z 12010KT 25/20 A2991 RMK A01 T02450196  RH  074%=      5-min Rain = 0
KES1 250547Z 12009KT 25/20 A2991 RMK A01 T02450197  RH  074%=      5-min Rain = 0
KES1 250548Z 12007KT 25/20 A2991 RMK A01 T02450196  RH  074%=      5-min Rain = 0
KES1 250549Z 11008KT 24/20 A2991 RMK A01 T02440196  RH  075%=      5-min Rain = 0
KES1 250550Z 13010KT 24/20 A2991 RMK A01 T02440197  RH  075%=      5-min Rain = 0
KES1 250551Z 12008KT 24/20 A2991 RMK A01 T02440197  RH  075%=      5-min Rain = 0
KES1 250552Z 13008KT 24/20 A2991 RMK A01 T02440196  RH  075%=      5-min Rain = 0
KES1 250553Z 13008KT 24/20 A2991 RMK A01 T02440197  RH  075%=      5-min Rain = 0
KES1 250554Z 13009KT 24/20 A2991 RMK A01 T02440197  RH  075%=      5-min Rain = 0
KES1 250555Z 13008KT 24/20 A2991 RMK A01 T02440198  RH  075%=      5-min Rain = 0
KES1 250556Z 13009KT 25/20 A2991 RMK A01 T02450198  RH  075%=      5-min Rain = 0
KES1 250557Z 13009KT 25/20 A2991 RMK A01 T02450198  RH  075%=      5-min Rain = 0
KES1 250558Z 12008KT 25/20 A2991 RMK A01 T02450198  RH  075%=      5-min Rain = 0
KES1 250559Z 13008KT 25/20 A2991 RMK A01 T02460199  RH  075%=      5-min Rain = 0
KES1 250600Z 13007KT 25/20 A2991 RMK A01 T02460199  RH  075%=      5-min Rain = 0
KES1 250601Z 13008KT 25/20 A2991 RMK A01 T02460199  RH  075%=      5-min Rain = 0
KES1 250602Z 13008KT 25/20 A2991 RMK A01 T02460199  RH  075%=      5-min Rain = 0
KES1 250603Z 12007KT 25/20 A2991 RMK A01 T02460199  RH  075%=      5-min Rain = 0
KES1 250604Z 13007KT 25/20 A2991 RMK A01 T02460199  RH  075%=      5-min Rain = 0
KES1 250605Z 13008KT 25/20 A2991 RMK A01 T02460200  RH  075%=      5-min Rain = 0
KES1 250606Z 13008KT 25/20 A2991 RMK A01 T02470200  RH  075%=      5-min Rain = 0
KES1 250607Z 13007KT 25/20 A2991 RMK A01 T02470200  RH  075%=      5-min Rain = 0
KES1 250608Z 13007KT 25/20 A2991 RMK A01 T02470200  RH  075%=      5-min Rain = 0
KES1 250609Z 13008KT 25/20 A2991 RMK A01 T02470201  RH  075%=      5-min Rain = 0
KES1 250610Z 14007KT 25/20 A2991 RMK A01 T02470201  RH  076%=      5-min Rain = 0
KES1 250611Z 13008KT 25/20 A2991 RMK A01 T02470201  RH  076%=      5-min Rain = 0
KES1 250612Z 13008KT 25/20 A2991 RMK A01 T02470201  RH  076%=      5-min Rain = 0
KES1 250613Z 13008KT 25/20 A2991 RMK A01 T02470202  RH  076%=      5-min Rain = 0
KES1 250614Z 13008KT 25/20 A2991 RMK A01 T02470202  RH  076%=      5-min Rain = 0
KES1 250615Z 12007KT 25/20 A2991 RMK A01 T02470203  RH  076%=      5-min Rain = 0
KES1 250616Z 13008KT 25/20 A2991 RMK A01 T02470203  RH  076%=      5-min Rain = 0
KES1 250617Z 14009KT 25/20 A2991 RMK A01 T02470204  RH  077%=      5-min Rain = 0
KES1 250618Z 13008KT 25/20 A2991 RMK A01 T02470203  RH  077%=      5-min Rain = 0
KES1 250619Z 13006KT 25/20 A2991 RMK A01 T02470204  RH  077%=      5-min Rain = 0
KES1 250620Z 12008KT 25/21 A2991 RMK A01 T02480205  RH  077%=      5-min Rain = 0
KES1 250621Z 14006KT 25/21 A2991 RMK A01 T02470205  RH  077%=      5-min Rain = 0
KES1 250622Z 13007KT 25/21 A2991 RMK A01 T02470205  RH  077%=      5-min Rain = 0
KES1 250623Z 14007KT 25/21 A2991 RMK A01 T02470205  RH  077%=      5-min Rain = 0
KES1 250624Z 13007KT 25/21 A2991 RMK A01 T02480206  RH  078%=      5-min Rain = 0
KES1 250625Z 13006KT 25/21 A2991 RMK A01 T02480206  RH  077%=      5-min Rain = 0
KES1 250626Z 13008KT 25/21 A2991 RMK A01 T02480206  RH  078%=      5-min Rain = 0
KES1 250627Z 14009KT 25/21 A2991 RMK A01 T02480207  RH  078%=      5-min Rain = 0
KES1 250628Z 13007KT 25/21 A2991 RMK A01 T02480207  RH  078%=      5-min Rain = 0
KES1 250629Z 13006KT 25/21 A2991 RMK A01 T02480207  RH  078%=      5-min Rain = 0
KES1 250630Z 13007KT 25/21 A2991 RMK A01 T02470207  RH  078%=      5-min Rain = 0
KES1 250631Z 13007KT 25/21 A2991 RMK A01 T02470207  RH  078%=      5-min Rain = 0
KES1 250632Z 12007KT 25/21 A2991 RMK A01 T02470208  RH  079%=      5-min Rain = 0
KES1 250633Z 13006KT 25/21 A2991 RMK A01 T02470208  RH  079%=      5-min Rain = 0
KES1 250634Z 13007KT 25/21 A2991 RMK A01 T02470208  RH  079%=      5-min Rain = 0
KES1 250635Z 13008KT 25/21 A2991 RMK A01 T02460208  RH  079%=      5-min Rain = 0
KES1 250636Z 13006KT 25/21 A2991 RMK A01 T02460208  RH  079%=      5-min Rain = 0
KES1 250637Z 13007KT 25/21 A2991 RMK A01 T02460208  RH  080%=      5-min Rain = 0
KES1 250638Z 13009KT 25/21 A2991 RMK A01 T02460209  RH  080%=      5-min Rain = 0
KES1 250639Z 14009KT 25/21 A2991 RMK A01 T02460209  RH  080%=      5-min Rain = 0
KES1 250640Z 13010KT 25/21 A2991 RMK A01 T02460209  RH  080%=      5-min Rain = 0
KES1 250641Z 14010KT 25/21 A2991 RMK A01 T02460210  RH  080%=      5-min Rain = 0
KES1 250642Z 14010KT 25/21 A2991 RMK A01 T02460210  RH  080%=      5-min Rain = 0
KES1 250643Z 13009KT 25/21 A2991 RMK A01 T02460210  RH  080%=      5-min Rain = 0
KES1 250644Z 13007KT 25/21 A2991 RMK A01 T02460210  RH  081%=      5-min Rain = 0
KES1 250645Z 14009KT 25/21 A2991 RMK A01 T02450210  RH  081%=      5-min Rain = 0
KES1 250646Z 14008KT 25/21 A2991 RMK A01 T02450210  RH  081%=      5-min Rain = 0
KES1 250647Z 13006KT 25/21 A2991 RMK A01 T02450210  RH  081%=      5-min Rain = 0
KES1 250648Z 14008KT 24/21 A2991 RMK A01 T02440210  RH  081%=      5-min Rain = 0
KES1 250649Z 14008KT 24/21 A2991 RMK A01 T02440210  RH  081%=      5-min Rain = 0
KES1 250650Z 14009KT 24/21 A2991 RMK A01 T02440210  RH  082%=      5-min Rain = 0
KES1 250651Z 13009KT 24/21 A2991 RMK A01 T02440210  RH  082%=      5-min Rain = 0
KES1 250652Z 13010KT 24/21 A2991 RMK A01 T02440211  RH  082%=      5-min Rain = 0
KES1 250653Z 14009KT 24/21 A2991 RMK A01 T02440210  RH  082%=      5-min Rain = 0
KES1 250654Z 14008KT 24/21 A2991 RMK A01 T02440210  RH  082%=      5-min Rain = 0
KES1 250655Z 14008KT 24/21 A2991 RMK A01 T02440210  RH  082%=      5-min Rain = 0
KES1 250656Z 13007KT 24/21 A2991 RMK A01 T02430211  RH  082%=      5-min Rain = 0
KES1 250657Z 14008KT 24/21 A2991 RMK A01 T02430210  RH  082%=      5-min Rain = 0
KES1 250658Z 13007KT 24/21 A2991 RMK A01 T02430211  RH  082%=      5-min Rain = 0
KES1 250659Z 14007KT 24/21 A2991 RMK A01 T02420210  RH  082%=      5-min Rain = 0
KES1 250700Z 13007KT 24/21 A2991 RMK A01 T02420210  RH  082%=      5-min Rain = 0
KES1 250701Z 14008KT 24/21 A2991 RMK A01 T02410210  RH  083%=      5-min Rain = 0
KES1 250702Z 14009KT 24/21 A2991 RMK A01 T02410210  RH  083%=      5-min Rain = 0
KES1 250703Z 14007KT 24/21 A2991 RMK A01 T02410211  RH  083%=      5-min Rain = 0
KES1 250704Z 13005KT 24/21 A2991 RMK A01 T02410210  RH  083%=      5-min Rain = 0
KES1 250705Z 13005KT 24/21 A2991 RMK A01 T02410210  RH  083%=      5-min Rain = 0
KES1 250706Z 13007KT 24/21 A2991 RMK A01 T02400210  RH  083%=      5-min Rain = 0
KES1 250707Z 13006KT 24/21 A2991 RMK A01 T02400210  RH  083%=      5-min Rain = 0
KES1 250708Z 13004KT 24/21 A2991 RMK A01 T02400210  RH  083%=      5-min Rain = 0
KES1 250709Z 14006KT 24/21 A2991 RMK A01 T02390210  RH  084%=      5-min Rain = 0
KES1 250710Z 12006KT 24/21 A2991 RMK A01 T02390210  RH  084%=      5-min Rain = 0
KES1 250711Z 13006KT 24/21 A2991 RMK A01 T02390210  RH  084%=      5-min Rain = 0
KES1 250712Z 13005KT 24/21 A2991 RMK A01 T02380210  RH  084%=      5-min Rain = 0
KES1 250713Z 13005KT 24/21 A2991 RMK A01 T02380210  RH  084%=      5-min Rain = 0
KES1 250714Z 13006KT 24/21 A2991 RMK A01 T02370210  RH  084%=      5-min Rain = 0
KES1 250715Z 13006KT 24/21 A2991 RMK A01 T02370210  RH  085%=      5-min Rain = 0
KES1 250716Z 13007KT 24/21 A2991 RMK A01 T02370210  RH  085%=      5-min Rain = 0
KES1 250717Z 13007KT 24/21 A2991 RMK A01 T02380210  RH  085%=      5-min Rain = 0
KES1 250718Z 13006KT 24/21 A2991 RMK A01 T02370210  RH  085%=      5-min Rain = 0
KES1 250719Z 12006KT 24/21 A2991 RMK A01 T02370210  RH  085%=      5-min Rain = 0
KES1 250720Z 13006KT 24/21 A2991 RMK A01 T02370210  RH  085%=      5-min Rain = 0
KES1 250721Z 13007KT 24/21 A2991 RMK A01 T02360209  RH  085%=      5-min Rain = 0
KES1 250722Z 14007KT 24/21 A2991 RMK A01 T02360210  RH  085%=      5-min Rain = 0
KES1 250723Z 13006KT 24/21 A2991 RMK A01 T02360210  RH  085%=      5-min Rain = 0
KES1 250724Z 13005KT 24/21 A2991 RMK A01 T02360210  RH  085%=      5-min Rain = 0
KES1 250725Z 13005KT 24/21 A2991 RMK A01 T02360210  RH  085%=      5-min Rain = 0
KES1 250726Z 13006KT 24/21 A2991 RMK A01 T02350209  RH  085%=      5-min Rain = 0
KES1 250727Z 13005KT 24/21 A2991 RMK A01 T02350210  RH  085%=      5-min Rain = 0
KES1 250728Z 13004KT 24/21 A2991 RMK A01 T02350210  RH  086%=      5-min Rain = 0
KES1 250729Z 13005KT 24/21 A2991 RMK A01 T02350209  RH  086%=      5-min Rain = 0
KES1 250730Z 13006KT 23/21 A2991 RMK A01 T02340209  RH  086%=      5-min Rain = 0
KES1 250731Z 12005KT 23/21 A2991 RMK A01 T02340209  RH  086%=      5-min Rain = 0
KES1 250732Z 13004KT 23/21 A2991 RMK A01 T02340209  RH  086%=      5-min Rain = 0
KES1 250733Z 13005KT 23/21 A2991 RMK A01 T02340209  RH  086%=      5-min Rain = 0
KES1 250734Z 13004KT 23/21 A2991 RMK A01 T02340209  RH  086%=      5-min Rain = 0
KES1 250735Z 13005KT 23/21 A2991 RMK A01 T02330210  RH  086%=      5-min Rain = 0
KES1 250736Z 12005KT 23/21 A2991 RMK A01 T02330209  RH  086%=      5-min Rain = 0
KES1 250737Z 12005KT 23/21 A2991 RMK A01 T02330209  RH  086%=      5-min Rain = 0
KES1 250738Z 13005KT 23/21 A2991 RMK A01 T02330209  RH  087%=      5-min Rain = 0
KES1 250739Z 12005KT 23/21 A2991 RMK A01 T02320209  RH  087%=      5-min Rain = 0
KES1 250740Z 13004KT 23/21 A2991 RMK A01 T02320209  RH  087%=      5-min Rain = 0
KES1 250741Z 12004KT 23/21 A2991 RMK A01 T02320209  RH  087%=      5-min Rain = 0
KES1 250742Z 12004KT 23/21 A2991 RMK A01 T02310209  RH  087%=      5-min Rain = 0
KES1 250743Z 12005KT 23/21 A2991 RMK A01 T02310209  RH  088%=      5-min Rain = 0
KES1 250744Z 11005KT 23/21 A2992 RMK A01 T02300209  RH  088%=      5-min Rain = 0
KES1 250745Z 11005KT 23/21 A2992 RMK A01 T02300209  RH  088%=      5-min Rain = 0
KES1 250746Z 12004KT 23/21 A2992 RMK A01 T02300209  RH  088%=      5-min Rain = 0
KES1 250747Z 12004KT 23/21 A2992 RMK A01 T02300209  RH  088%=      5-min Rain = 0
KES1 250748Z 12004KT 23/21 A2992 RMK A01 T02300209  RH  088%=      5-min Rain = 0
KES1 250749Z 12004KT 23/21 A2992 RMK A01 T02290209  RH  088%=      5-min Rain = 0
KES1 250750Z 11005KT 23/21 A2992 RMK A01 T02290209  RH  088%=      5-min Rain = 0
KES1 250751Z 11005KT 23/21 A2992 RMK A01 T02290209  RH  088%=      5-min Rain = 0
KES1 250752Z 11005KT 23/21 A2992 RMK A01 T02290209  RH  088%=      5-min Rain = 0
KES1 250753Z 11004KT 23/21 A2992 RMK A01 T02290209  RH  088%=      5-min Rain = 0
KES1 250754Z 11004KT 23/21 A2992 RMK A01 T02280208  RH  089%=      5-min Rain = 0
KES1 250755Z 11004KT 23/21 A2992 RMK A01 T02280208  RH  089%=      5-min Rain = 0
KES1 250756Z 11004KT 23/21 A2992 RMK A01 T02280208  RH  089%=      5-min Rain = 0
KES1 250757Z 11004KT 23/21 A2992 RMK A01 T02270208  RH  089%=      5-min Rain = 0
KES1 250758Z 11004KT 23/21 A2992 RMK A01 T02270209  RH  089%=      5-min Rain = 0
KES1 250759Z 10005KT 23/21 A2992 RMK A01 T02270209  RH  089%=      5-min Rain = 0
KES1 250800Z 10005KT 23/21 A2992 RMK A01 T02270208  RH  089%=      5-min Rain = 0
KES1 250801Z 10005KT 23/21 A2992 RMK A01 T02270208  RH  089%=      5-min Rain = 0
KES1 250802Z 09004KT 23/21 A2992 RMK A01 T02260208  RH  089%=      5-min Rain = 0
KES1 250803Z 09004KT 23/21 A2992 RMK A01 T02260208  RH  089%=      5-min Rain = 0
KES1 250804Z 08004KT 23/21 A2992 RMK A01 T02260208  RH  090%=      5-min Rain = 0
KES1 250805Z 09004KT 23/21 A2992 RMK A01 T02250207  RH  090%=      5-min Rain = 0
KES1 250806Z 09004KT 22/21 A2992 RMK A01 T02240207  RH  090%=      5-min Rain = 0
KES1 250807Z 09004KT 22/21 A2992 RMK A01 T02240207  RH  090%=      5-min Rain = 0
KES1 250808Z 09004KT 22/21 A2992 RMK A01 T02230207  RH  090%=      5-min Rain = 0
KES1 250809Z 10004KT 22/21 A2992 RMK A01 T02230207  RH  091%=      5-min Rain = 0
KES1 250810Z 10004KT 22/21 A2992 RMK A01 T02230207  RH  090%=      5-min Rain = 0
KES1 250811Z 10004KT 22/21 A2992 RMK A01 T02230207  RH  091%=      5-min Rain = 0
KES1 250812Z 10004KT 22/21 A2992 RMK A01 T02220206  RH  091%=      5-min Rain = 0
KES1 250813Z 11005KT 22/21 A2992 RMK A01 T02210206  RH  091%=      5-min Rain = 0
KES1 250814Z 11005KT 22/21 A2992 RMK A01 T02210206  RH  091%=      5-min Rain = 0
KES1 250815Z 11005KT 22/21 A2992 RMK A01 T02210206  RH  091%=      5-min Rain = 0
KES1 250816Z 11005KT 22/21 A2992 RMK A01 T02210206  RH  091%=      5-min Rain = 0
KES1 250817Z 11004KT 22/21 A2992 RMK A01 T02210207  RH  091%=      5-min Rain = 0
KES1 250818Z 10005KT 22/21 A2992 RMK A01 T02220206  RH  091%=      5-min Rain = 0
KES1 250819Z 10005KT 22/21 A2991 RMK A01 T02210206  RH  091%=      5-min Rain = 0
KES1 250820Z 10005KT 22/21 A2991 RMK A01 T02220207  RH  091%=      5-min Rain = 0
KES1 250821Z 10006KT 22/21 A2991 RMK A01 T02220207  RH  091%=      5-min Rain = 0
KES1 250822Z 10006KT 22/21 A2991 RMK A01 T02220207  RH  091%=      5-min Rain = 0
KES1 250823Z 10006KT 22/21 A2992 RMK A01 T02220207  RH  091%=      5-min Rain = 0
KES1 250824Z 11005KT 22/21 A2992 RMK A01 T02220207  RH  091%=      5-min Rain = 0
KES1 250825Z 11006KT 22/21 A2992 RMK A01 T02220207  RH  091%=      5-min Rain = 0
KES1 250826Z 11005KT 22/21 A2992 RMK A01 T02220208  RH  091%=      5-min Rain = 0
KES1 250827Z 11005KT 22/21 A2992 RMK A01 T02220208  RH  091%=      5-min Rain = 0
KES1 250828Z 11005KT 22/21 A2992 RMK A01 T02230208  RH  091%=      5-min Rain = 0
KES1 250829Z 10005KT 22/21 A2992 RMK A01 T02230208  RH  091%=      5-min Rain = 0
KES1 250830Z 10005KT 22/21 A2991 RMK A01 T02230209  RH  091%=      5-min Rain = 0
KES1 250831Z 10005KT 22/21 A2991 RMK A01 T02240208  RH  091%=      5-min Rain = 0
KES1 250832Z 10004KT 22/21 A2991 RMK A01 T02240209  RH  091%=      5-min Rain = 0
KES1 250833Z 11005KT 22/21 A2992 RMK A01 T02240208  RH  091%=      5-min Rain = 0
KES1 250834Z 12004KT 22/21 A2992 RMK A01 T02240208  RH  091%=      5-min Rain = 0
KES1 250835Z 11004KT 22/21 A2992 RMK A01 T02240208  RH  091%=      5-min Rain = 0
KES1 250836Z 11003KT 22/21 A2992 RMK A01 T02230208  RH  091%=      5-min Rain = 0
KES1 250837Z 11003KT 22/21 A2992 RMK A01 T02230208  RH  091%=      5-min Rain = 0
KES1 250838Z 11003KT 22/21 A2992 RMK A01 T02220207  RH  091%=      5-min Rain = 0
KES1 250839Z 11003KT 22/21 A2992 RMK A01 T02220207  RH  091%=      5-min Rain = 0
KES1 250840Z 10003KT 22/21 A2992 RMK A01 T02220208  RH  092%=      5-min Rain = 0
KES1 250841Z 10002KT 22/21 A2992 RMK A01 T02220208  RH  092%=      5-min Rain = 0
KES1 250842Z 10003KT 22/21 A2992 RMK A01 T02220208  RH  092%=      5-min Rain = 0
KES1 250843Z 10003KT 22/21 A2992 RMK A01 T02220208  RH  092%=      5-min Rain = 0
KES1 250844Z 09003KT 22/21 A2992 RMK A01 T02220207  RH  092%=      5-min Rain = 0
KES1 250845Z 10003KT 22/21 A2992 RMK A01 T02210207  RH  092%=      5-min Rain = 0
KES1 250846Z 10003KT 22/21 A2992 RMK A01 T02210206  RH  092%=      5-min Rain = 0
KES1 250847Z 10003KT 22/21 A2992 RMK A01 T02200206  RH  092%=      5-min Rain = 0
KES1 250848Z 11003KT 22/21 A2992 RMK A01 T02190205  RH  092%=      5-min Rain = 0
KES1 250849Z 11003KT 22/20 A2992 RMK A01 T02180204  RH  092%=      5-min Rain = 0
KES1 250850Z 11003KT 22/21 A2992 RMK A01 T02180205  RH  092%=      5-min Rain = 0
KES1 250851Z 11003KT 22/21 A2992 RMK A01 T02170205  RH  093%=      5-min Rain = 0
KES1 250852Z 11003KT 22/21 A2992 RMK A01 T02170205  RH  093%=      5-min Rain = 0
KES1 250853Z 11003KT 22/21 A2992 RMK A01 T02170205  RH  093%=      5-min Rain = 0
KES1 250854Z 11003KT 22/21 A2992 RMK A01 T02170206  RH  093%=      5-min Rain = 0
KES1 250855Z 11003KT 22/21 A2992 RMK A01 T02170206  RH  093%=      5-min Rain = 0
KES1 250856Z 11003KT 22/21 A2992 RMK A01 T02180206  RH  093%=      5-min Rain = 0
KES1 250857Z 11003KT 22/21 A2992 RMK A01 T02180206  RH  093%=      5-min Rain = 0
KES1 250858Z 11003KT 22/21 A2992 RMK A01 T02180206  RH  093%=      5-min Rain = 0
KES1 250859Z 12003KT 22/21 A2992 RMK A01 T02180207  RH  093%=      5-min Rain = 0
KES1 250900Z 12004KT 22/21 A2992 RMK A01 T02190207  RH  093%=      5-min Rain = 0
KES1 250901Z 11004KT 22/21 A2992 RMK A01 T02190207  RH  093%=      5-min Rain = 0
KES1 250902Z 11004KT 22/21 A2992 RMK A01 T02190207  RH  093%=      5-min Rain = 0
KES1 250903Z 12004KT 22/21 A2992 RMK A01 T02190207  RH  093%=      5-min Rain = 0
KES1 250904Z 11003KT 22/21 A2992 RMK A01 T02190207  RH  093%=      5-min Rain = 0
KES1 250905Z 12003KT 22/21 A2992 RMK A01 T02190206  RH  092%=      5-min Rain = 0
KES1 250906Z 12003KT 22/21 A2992 RMK A01 T02190206  RH  093%=      5-min Rain = 0
KES1 250907Z 12004KT 22/21 A2992 RMK A01 T02190206  RH  093%=      5-min Rain = 0
KES1 250908Z 11003KT 22/21 A2992 RMK A01 T02190207  RH  093%=      5-min Rain = 0
KES1 250909Z 11003KT 22/21 A2992 RMK A01 T02180206  RH  093%=      5-min Rain = 0
KES1 250910Z 11003KT 22/21 A2992 RMK A01 T02180206  RH  093%=      5-min Rain = 0
KES1 250911Z 12004KT 22/21 A2992 RMK A01 T02180207  RH  093%=      5-min Rain = 0
KES1 250912Z 12004KT 22/21 A2992 RMK A01 T02180207  RH  093%=      5-min Rain = 0
KES1 250913Z 12005KT 22/21 A2992 RMK A01 T02180207  RH  093%=      5-min Rain = 0
KES1 250914Z 12005KT 22/21 A2992 RMK A01 T02180207  RH  093%=      5-min Rain = 0
KES1 250915Z 12004KT 22/21 A2992 RMK A01 T02180208  RH  094%=      5-min Rain = 0
KES1 250916Z 12004KT 22/21 A2992 RMK A01 T02190208  RH  094%=      5-min Rain = 0
KES1 250917Z 12005KT 22/21 A2992 RMK A01 T02190208  RH  094%=      5-min Rain = 0
KES1 250918Z 12004KT 22/21 A2992 RMK A01 T02190208  RH  094%=      5-min Rain = 0
KES1 250919Z 12005KT 22/21 A2992 RMK A01 T02190208  RH  093%=      5-min Rain = 0
KES1 250920Z 12005KT 22/21 A2992 RMK A01 T02180208  RH  094%=      5-min Rain = 0
KES1 250921Z 12005KT 22/21 A2992 RMK A01 T02180208  RH  094%=      5-min Rain = 0
KES1 250922Z 12005KT 22/21 A2992 RMK A01 T02190208  RH  094%=      5-min Rain = 0
KES1 250923Z 12004KT 22/21 A2992 RMK A01 T02190209  RH  094%=      5-min Rain = 0
KES1 250924Z 11005KT 22/21 A2992 RMK A01 T02190209  RH  094%=      5-min Rain = 0
KES1 250925Z 11004KT 22/21 A2992 RMK A01 T02190209  RH  094%=      5-min Rain = 0
KES1 250926Z 11005KT 22/21 A2992 RMK A01 T02190209  RH  094%=      5-min Rain = 0
KES1 250927Z 11004KT 22/21 A2992 RMK A01 T02190209  RH  094%=      5-min Rain = 0
KES1 250928Z 12004KT 22/21 A2992 RMK A01 T02190209  RH  094%=      5-min Rain = 0
KES1 250929Z 12004KT 22/21 A2992 RMK A01 T02200209  RH  094%=      5-min Rain = 0
KES1 250930Z 12004KT 22/21 A2992 RMK A01 T02190209  RH  094%=      5-min Rain = 0
KES1 250931Z 12004KT 22/21 A2992 RMK A01 T02200209  RH  094%=      5-min Rain = 0
KES1 250932Z 12004KT 22/21 A2992 RMK A01 T02200209  RH  094%=      5-min Rain = 0
KES1 250933Z 12004KT 22/21 A2992 RMK A01 T02200209  RH  094%=      5-min Rain = 0
KES1 250934Z 13004KT 22/21 A2992 RMK A01 T02200209  RH  094%=      5-min Rain = 0
KES1 250935Z 13004KT 22/21 A2992 RMK A01 T02200209  RH  094%=      5-min Rain = 0
KES1 250936Z 13006KT 22/21 A2993 RMK A01 T02200209  RH  094%=      5-min Rain = 0
KES1 250937Z 13006KT 22/21 A2993 RMK A01 T02190209  RH  094%=      5-min Rain = 0
KES1 250938Z 13005KT 22/21 A2992 RMK A01 T02190209  RH  094%=      5-min Rain = 0
KES1 250939Z 13006KT 22/21 A2992 RMK A01 T02200210  RH  094%=      5-min Rain = 0
KES1 250940Z 13006KT 22/21 A2992 RMK A01 T02190210  RH  094%=      5-min Rain = 0
KES1 250941Z 14005KT 22/21 A2992 RMK A01 T02200210  RH  094%=      5-min Rain = 0
KES1 250942Z 13005KT 22/21 A2993 RMK A01 T02190209  RH  094%=      5-min Rain = 0
KES1 250943Z 14005KT 22/21 A2993 RMK A01 T02200210  RH  094%=      5-min Rain = 0
KES1 250944Z 14005KT 22/21 A2993 RMK A01 T02190209  RH  094%=      5-min Rain = 0
KES1 250945Z 14004KT 22/21 A2993 RMK A01 T02190209  RH  094%=      5-min Rain = 0
KES1 250946Z 13005KT 22/21 A2993 RMK A01 T02190209  RH  094%=      5-min Rain = 0
KES1 250947Z 13005KT 22/21 A2993 RMK A01 T02190209  RH  094%=      5-min Rain = 0
KES1 250948Z 13005KT 22/21 A2993 RMK A01 T02190209  RH  094%=      5-min Rain = 0
KES1 250949Z 13005KT 22/21 A2993 RMK A01 T02180209  RH  094%=      5-min Rain = 0
KES1 250950Z 13005KT 22/21 A2992 RMK A01 T02180209  RH  094%=      5-min Rain = 0
KES1 250951Z 13004KT 22/21 A2992 RMK A01 T02180209  RH  095%=      5-min Rain = 0
KES1 250952Z 13005KT 22/21 A2993 RMK A01 T02180209  RH  095%=      5-min Rain = 0
KES1 250953Z 13005KT 22/21 A2993 RMK A01 T02180209  RH  095%=      5-min Rain = 0
KES1 250954Z 13005KT 22/21 A2993 RMK A01 T02180209  RH  095%=      5-min Rain = 0
KES1 250955Z 13005KT 22/21 A2993 RMK A01 T02180209  RH  095%=      5-min Rain = 0
KES1 250956Z 13005KT 22/21 A2993 RMK A01 T02180209  RH  095%=      5-min Rain = 0
KES1 250957Z 14004KT 22/21 A2993 RMK A01 T02170209  RH  095%=      5-min Rain = 0
KES1 250958Z 13005KT 22/21 A2993 RMK A01 T02170208  RH  095%=      5-min Rain = 0
KES1 250959Z 13005KT 22/21 A2993 RMK A01 T02170209  RH  095%=      5-min Rain = 0
KES1 251000Z 13004KT 22/21 A2993 RMK A01 T02160209  RH  095%=      5-min Rain = 0
KES1 251001Z 14005KT 22/21 A2993 RMK A01 T02170209  RH  095%=      5-min Rain = 0
KES1 251002Z 14005KT 22/21 A2993 RMK A01 T02170208  RH  095%=      5-min Rain = 0
KES1 251003Z 14005KT 22/21 A2993 RMK A01 T02160208  RH  095%=      5-min Rain = 0
KES1 251004Z 14005KT 22/21 A2993 RMK A01 T02160208  RH  095%=      5-min Rain = 0
KES1 251005Z 14005KT 22/21 A2993 RMK A01 T02160208  RH  095%=      5-min Rain = 0
KES1 251006Z 14006KT 22/21 A2993 RMK A01 T02160208  RH  095%=      5-min Rain = 0
KES1 251007Z 15005KT 22/21 A2993 RMK A01 T02160208  RH  095%=      5-min Rain = 0
KES1 251008Z 15005KT 22/21 A2993 RMK A01 T02160208  RH  095%=      5-min Rain = 0
KES1 251009Z 15005KT 22/21 A2993 RMK A01 T02160208  RH  095%=      5-min Rain = 0
KES1 251010Z 14006KT 22/21 A2993 RMK A01 T02150208  RH  096%=      5-min Rain = 0
KES1 251011Z 15005KT 22/21 A2993 RMK A01 T02150208  RH  096%=      5-min Rain = 0
KES1 251012Z 14005KT 22/21 A2993 RMK A01 T02150208  RH  096%=      5-min Rain = 0
KES1 251013Z 15005KT 22/21 A2993 RMK A01 T02150208  RH  096%=      5-min Rain = 0
KES1 251014Z 14006KT 22/21 A2993 RMK A01 T02150208  RH  096%=      5-min Rain = 0
KES1 251015Z 14005KT 22/21 A2993 RMK A01 T02150208  RH  096%=      5-min Rain = 0
KES1 251016Z 14005KT 21/21 A2993 RMK A01 T02140207  RH  096%=      5-min Rain = 0
KES1 251017Z 14004KT 21/21 A2993 RMK A01 T02140207  RH  096%=      5-min Rain = 0
KES1 251018Z 14004KT 21/21 A2993 RMK A01 T02140208  RH  096%=      5-min Rain = 0
KES1 251019Z 14004KT 22/21 A2993 RMK A01 T02150208  RH  096%=      5-min Rain = 0
KES1 251020Z 15003KT 21/21 A2993 RMK A01 T02140207  RH  096%=      5-min Rain = 0
KES1 251021Z 16004KT 21/21 A2993 RMK A01 T02130207  RH  096%=      5-min Rain = 0
KES1 251022Z 16004KT 21/21 A2993 RMK A01 T02140207  RH  096%=      5-min Rain = 0
KES1 251023Z 15004KT 21/21 A2993 RMK A01 T02130207  RH  096%=      5-min Rain = 0
KES1 251024Z 16003KT 21/21 A2993 RMK A01 T02140208  RH  096%=      5-min Rain = 0
KES1 251025Z 16004KT 21/21 A2993 RMK A01 T02140207  RH  096%=      5-min Rain = 0
KES1 251026Z 15004KT 21/21 A2993 RMK A01 T02140207  RH  096%=      5-min Rain = 0
KES1 251027Z 16004KT 21/21 A2993 RMK A01 T02140207  RH  096%=      5-min Rain = 0
KES1 251028Z 15003KT 21/21 A2993 RMK A01 T02130207  RH  096%=      5-min Rain = 0
KES1 251029Z 15003KT 21/21 A2993 RMK A01 T02130207  RH  096%=      5-min Rain = 0
KES1 251030Z 16003KT 21/21 A2993 RMK A01 T02130207  RH  096%=      5-min Rain = 0
KES1 251031Z 15002KT 21/21 A2993 RMK A01 T02130207  RH  096%=      5-min Rain = 0
KES1 251032Z 16001KT 21/21 A2993 RMK A01 T02130207  RH  096%=      5-min Rain = 0
KES1 251033Z 14001KT 21/21 A2993 RMK A01 T02130207  RH  096%=      5-min Rain = 0
KES1 251034Z 15002KT 21/21 A2993 RMK A01 T02120206  RH  096%=      5-min Rain = 0
KES1 251035Z 17001KT 21/21 A2993 RMK A01 T02120206  RH  096%=      5-min Rain = 0
KES1 251036Z 18001KT 21/21 A2993 RMK A01 T02120206  RH  096%=      5-min Rain = 0
KES1 251037Z 19000KT 21/21 A2993 RMK A01 T02120206  RH  096%=      5-min Rain = 0
KES1 251038Z 25000KT 21/21 A2993 RMK A01 T02120206  RH  096%=      5-min Rain = 0
KES1 251039Z 28001KT 21/21 A2993 RMK A01 T02120206  RH  096%=      5-min Rain = 0
KES1 251040Z 29001KT 21/21 A2993 RMK A01 T02110205  RH  096%=      5-min Rain = 0
KES1 251041Z 30001KT 21/20 A2994 RMK A01 T02110204  RH  096%=      5-min Rain = 0
KES1 251042Z 30001KT 21/20 A2994 RMK A01 T02100204  RH  096%=      5-min Rain = 0
KES1 251043Z 29001KT 21/20 A2994 RMK A01 T02100203  RH  096%=      5-min Rain = 0
KES1 251044Z 27001KT 21/20 A2994 RMK A01 T02090203  RH  096%=      5-min Rain = 0
KES1 251045Z 28001KT 21/20 A2994 RMK A01 T02090203  RH  096%=      5-min Rain = 0
KES1 251046Z 00000KT 21/20 A2994 RMK A01 T02080202  RH  096%=      5-min Rain = 0
KES1 251047Z 28000KT 21/20 A2994 RMK A01 T02080202  RH  096%=      5-min Rain = 0
KES1 251048Z 00000KT 21/20 A2994 RMK A01 T02080202  RH  096%=      5-min Rain = 0
KES1 251049Z 00000KT 21/20 A2994 RMK A01 T02080202  RH  096%=      5-min Rain = 0
KES1 251050Z 31001KT 21/20 A2994 RMK A01 T02080202  RH  096%=      5-min Rain = 0
KES1 251051Z 30001KT 21/20 A2994 RMK A01 T02070201  RH  096%=      5-min Rain = 0
KES1 251052Z 30001KT 21/20 A2994 RMK A01 T02070201  RH  096%=      5-min Rain = 0
KES1 251053Z 30001KT 21/20 A2994 RMK A01 T02070201  RH  097%=      5-min Rain = 0
KES1 251054Z 30000KT 21/20 A2994 RMK A01 T02070201  RH  097%=      5-min Rain = 0
KES1 251055Z 00000KT 21/20 A2994 RMK A01 T02070201  RH  097%=      5-min Rain = 0
KES1 251056Z 00000KT 21/20 A2994 RMK A01 T02070202  RH  097%=      5-min Rain = 0
KES1 251057Z 28000KT 21/20 A2994 RMK A01 T02080203  RH  097%=      5-min Rain = 0
KES1 251058Z 28001KT 21/20 A2994 RMK A01 T02070202  RH  097%=      5-min Rain = 0
KES1 251059Z 28001KT 21/20 A2994 RMK A01 T02070202  RH  097%=      5-min Rain = 0
KES1 251100Z 28000KT 21/20 A2994 RMK A01 T02070201  RH  097%=      5-min Rain = 0
KES1 251101Z 00000KT 21/20 A2994 RMK A01 T02070202  RH  097%=      5-min Rain = 0
KES1 251102Z 18000KT 21/20 A2994 RMK A01 T02070202  RH  097%=      5-min Rain = 0
KES1 251103Z 18000KT 21/20 A2994 RMK A01 T02070202  RH  097%=      5-min Rain = 0
KES1 251104Z 00000KT 21/20 A2994 RMK A01 T02070202  RH  097%=      5-min Rain = 0
KES1 251105Z 00000KT 21/20 A2994 RMK A01 T02070202  RH  097%=      5-min Rain = 0
KES1 251106Z 00000KT 21/20 A2994 RMK A01 T02060201  RH  097%=      5-min Rain = 0
KES1 251107Z 00000KT 21/20 A2994 RMK A01 T02050200  RH  097%=      5-min Rain = 0
KES1 251108Z 14001KT 20/20 A2994 RMK A01 T02040199  RH  097%=      5-min Rain = 0
KES1 251109Z 14000KT 20/20 A2994 RMK A01 T02030198  RH  097%=      5-min Rain = 0
KES1 251110Z 14000KT 20/20 A2994 RMK A01 T02030198  RH  097%=      5-min Rain = 0
KES1 251111Z 13001KT 20/20 A2994 RMK A01 T02030198  RH  097%=      5-min Rain = 0
KES1 251112Z 13001KT 20/20 A2994 RMK A01 T02040199  RH  097%=      5-min Rain = 0
KES1 251113Z 14001KT 20/20 A2994 RMK A01 T02040199  RH  097%=      5-min Rain = 0
KES1 251114Z 16002KT 20/20 A2995 RMK A01 T02040199  RH  097%=      5-min Rain = 0
KES1 251115Z 16002KT 20/20 A2995 RMK A01 T02030199  RH  097%=      5-min Rain = 0
KES1 251116Z 16003KT 21/20 A2995 RMK A01 T02050201  RH  097%=      5-min Rain = 0
KES1 251117Z 16002KT 20/20 A2995 RMK A01 T02040200  RH  097%=      5-min Rain = 0
KES1 251118Z 16002KT 20/20 A2995 RMK A01 T02040200  RH  097%=      5-min Rain = 0
KES1 251119Z 15001KT 20/20 A2995 RMK A01 T02040200  RH  098%=      5-min Rain = 0
KES1 251120Z 15001KT 20/20 A2995 RMK A01 T02040201  RH  098%=      5-min Rain = 0
KES1 251121Z 15001KT 20/20 A2995 RMK A01 T02040200  RH  098%=      5-min Rain = 0
KES1 251122Z 13002KT 20/20 A2995 RMK A01 T02040201  RH  098%=      5-min Rain = 0
KES1 251123Z 13002KT 20/20 A2995 RMK A01 T02040201  RH  098%=      5-min Rain = 0
KES1 251124Z 14002KT 20/20 A2995 RMK A01 T02040201  RH  098%=      5-min Rain = 0
KES1 251125Z 15002KT 20/20 A2995 RMK A01 T02040200  RH  098%=      5-min Rain = 0
KES1 251126Z 14001KT 20/20 A2995 RMK A01 T02030200  RH  098%=      5-min Rain = 0
KES1 251127Z 15002KT 20/20 A2995 RMK A01 T02030199  RH  098%=      5-min Rain = 0
KES1 251128Z 14002KT 20/20 A2995 RMK A01 T02030200  RH  098%=      5-min Rain = 0
KES1 251129Z 14002KT 20/20 A2995 RMK A01 T02040200  RH  098%=      5-min Rain = 0
KES1 251130Z 15003KT 20/20 A2995 RMK A01 T02040200  RH  098%=      5-min Rain = 0
KES1 251131Z 16003KT 20/20 A2995 RMK A01 T02040201  RH  098%=      5-min Rain = 0
KES1 251132Z 15003KT 20/20 A2995 RMK A01 T02040200  RH  098%=      5-min Rain = 0
KES1 251133Z 16003KT 20/20 A2995 RMK A01 T02030200  RH  098%=      5-min Rain = 0
KES1 251134Z 18004KT 20/20 A2996 RMK A01 T02030200  RH  098%=      5-min Rain = 0
KES1 251135Z 18004KT 20/20 A2996 RMK A01 T02030200  RH  098%=      5-min Rain = 0
KES1 251136Z 18004KT 20/20 A2996 RMK A01 T02040201  RH  098%=      5-min Rain = 0
KES1 251137Z 18003KT 21/20 A2995 RMK A01 T02050202  RH  098%=      5-min Rain = 0
KES1 251138Z 18003KT 21/20 A2995 RMK A01 T02050202  RH  098%=      5-min Rain = 0
KES1 251139Z 18004KT 21/20 A2995 RMK A01 T02050202  RH  098%=      5-min Rain = 0
KES1 251140Z 19004KT 21/20 A2996 RMK A01 T02050202  RH  098%=      5-min Rain = 0
KES1 251141Z 19004KT 21/20 A2996 RMK A01 T02050202  RH  098%=      5-min Rain = 0
KES1 251142Z 19003KT 21/20 A2996 RMK A01 T02050203  RH  098%=      5-min Rain = 0
KES1 251143Z 18004KT 21/20 A2996 RMK A01 T02060203  RH  098%=      5-min Rain = 0
KES1 251144Z 18004KT 21/20 A2996 RMK A01 T02050202  RH  098%=      5-min Rain = 0
KES1 251145Z 18004KT 21/20 A2996 RMK A01 T02050202  RH  098%=      5-min Rain = 0
KES1 251146Z 17003KT 21/20 A2996 RMK A01 T02050203  RH  098%=      5-min Rain = 0
KES1 251147Z 18003KT 21/20 A2996 RMK A01 T02060203  RH  098%=      5-min Rain = 0
KES1 251148Z 17003KT 21/20 A2996 RMK A01 T02050203  RH  098%=      5-min Rain = 0
KES1 251149Z 17004KT 21/20 A2996 RMK A01 T02060203  RH  098%=      5-min Rain = 0
KES1 251150Z 16003KT 21/20 A2996 RMK A01 T02050202  RH  098%=      5-min Rain = 0
KES1 251151Z 17005KT 21/20 A2996 RMK A01 T02050203  RH  098%=      5-min Rain = 0
KES1 251152Z 17005KT 21/20 A2996 RMK A01 T02050203  RH  098%=      5-min Rain = 0
KES1 251153Z 18004KT 21/20 A2996 RMK A01 T02050203  RH  098%=      5-min Rain = 0
KES1 251154Z 18004KT 21/20 A2996 RMK A01 T02050203  RH  098%=      5-min Rain = 0
KES1 251155Z 17005KT 21/20 A2996 RMK A01 T02050203  RH  098%=      5-min Rain = 0
KES1 251156Z 16004KT 21/20 A2996 RMK A01 T02050203  RH  098%=      5-min Rain = 0
KES1 251157Z 17005KT 21/20 A2996 RMK A01 T02050203  RH  098%=      5-min Rain = 0
KES1 251158Z 18005KT 21/20 A2996 RMK A01 T02060203  RH  098%=      5-min Rain = 0
KES1 251159Z 18004KT 21/20 A2996 RMK A01 T02050203  RH  098%=      5-min Rain = 0
KES1 251200Z 18003KT 21/20 A2996 RMK A01 T02060203  RH  098%=      5-min Rain = 0
KES1 251201Z 18004KT 21/20 A2996 RMK A01 T02060204  RH  099%=      5-min Rain = 0
KES1 251202Z 18004KT 21/20 A2996 RMK A01 T02060203  RH  098%=      5-min Rain = 0
KES1 251203Z 18003KT 21/20 A2996 RMK A01 T02060204  RH  099%=      5-min Rain = 0
KES1 251204Z 17003KT 21/20 A2996 RMK A01 T02060204  RH  099%=      5-min Rain = 0
KES1 251205Z 18002KT 21/21 A2996 RMK A01 T02070205  RH  099%=      5-min Rain = 0
KES1 251206Z 18002KT 21/20 A2996 RMK A01 T02070204  RH  099%=      5-min Rain = 0
KES1 251207Z 18004KT 21/20 A2996 RMK A01 T02070204  RH  099%=      5-min Rain = 0
KES1 251208Z 18004KT 21/20 A2996 RMK A01 T02070204  RH  099%=      5-min Rain = 0
KES1 251209Z 18003KT 21/21 A2996 RMK A01 T02070205  RH  099%=      5-min Rain = 0
KES1 251210Z 18004KT 21/20 A2996 RMK A01 T02070204  RH  099%=      5-min Rain = 0
KES1 251211Z 17004KT 21/20 A2996 RMK A01 T02070204  RH  099%=      5-min Rain = 0
KES1 251212Z 19004KT 21/21 A2996 RMK A01 T02070205  RH  099%=      5-min Rain = 0
KES1 251213Z 19004KT 21/21 A2996 RMK A01 T02070205  RH  099%=      5-min Rain = 0
KES1 251214Z 19004KT 21/21 A2996 RMK A01 T02070205  RH  099%=      5-min Rain = 0
KES1 251215Z 19006KT 21/21 A2996 RMK A01 T02070205  RH  099%=      5-min Rain = 0
KES1 251216Z 19005KT 21/21 A2996 RMK A01 T02070205  RH  099%=      5-min Rain = 0
KES1 251217Z 18005KT 21/21 A2996 RMK A01 T02070205  RH  099%=      5-min Rain = 0
KES1 251218Z 20004KT 21/20 A2996 RMK A01 T02070204  RH  099%=      5-min Rain = 0
KES1 251219Z 19005KT 21/20 A2996 RMK A01 T02070204  RH  099%=      5-min Rain = 0
KES1 251220Z 20006KT 21/21 A2996 RMK A01 T02070205  RH  099%=      5-min Rain = 0
KES1 251221Z 19006KT 21/20 A2996 RMK A01 T02070204  RH  099%=      5-min Rain = 0
KES1 251222Z 20006KT 21/20 A2996 RMK A01 T02070204  RH  099%=      5-min Rain = 0
KES1 251223Z 19005KT 21/20 A2996 RMK A01 T02070204  RH  099%=      5-min Rain = 0
KES1 251224Z 18004KT 21/20 A2996 RMK A01 T02070204  RH  099%=      5-min Rain = 0
KES1 251225Z 19003KT 21/21 A2996 RMK A01 T02070205  RH  099%=      5-min Rain = 0
KES1 251226Z 19005KT 21/21 A2996 RMK A01 T02080206  RH  099%=      5-min Rain = 0
KES1 251227Z 20005KT 21/21 A2996 RMK A01 T02080205  RH  099%=      5-min Rain = 0
KES1 251228Z 21005KT 21/21 A2996 RMK A01 T02070205  RH  099%=      5-min Rain = 0
KES1 251229Z 20004KT 21/21 A2996 RMK A01 T02070205  RH  099%=      5-min Rain = 0
KES1 251230Z 19004KT 21/21 A2996 RMK A01 T02080206  RH  099%=      5-min Rain = 0
KES1 251231Z 20005KT 21/21 A2996 RMK A01 T02080206  RH  099%=      5-min Rain = 0
KES1 251232Z 18004KT 21/21 A2996 RMK A01 T02090206  RH  099%=      5-min Rain = 0
KES1 251233Z 19004KT 21/21 A2996 RMK A01 T02090207  RH  099%=      5-min Rain = 0
KES1 251234Z 20004KT 21/21 A2996 RMK A01 T02090207  RH  099%=      5-min Rain = 0
KES1 251235Z 20004KT 21/21 A2996 RMK A01 T02090207  RH  099%=      5-min Rain = 0
KES1 251236Z 19003KT 21/21 A2996 RMK A01 T02090207  RH  099%=      5-min Rain = 0
KES1 251237Z 20003KT 21/21 A2997 RMK A01 T02090207  RH  099%=      5-min Rain = 0
KES1 251238Z 19004KT 21/21 A2997 RMK A01 T02090207  RH  099%=      5-min Rain = 0
KES1 251239Z 20004KT 21/21 A2997 RMK A01 T02090207  RH  099%=      5-min Rain = 0
KES1 251240Z 23004KT 21/21 A2997 RMK A01 T02090207  RH  099%=      5-min Rain = 0
KES1 251241Z 22004KT 21/21 A2997 RMK A01 T02100208  RH  099%=      5-min Rain = 0
KES1 251242Z 22004KT 21/21 A2997 RMK A01 T02100208  RH  099%=      5-min Rain = 0
KES1 251243Z 21005KT 21/21 A2997 RMK A01 T02100208  RH  099%=      5-min Rain = 0
KES1 251244Z 20005KT 21/21 A2997 RMK A01 T02090207  RH  099%=      5-min Rain = 0
KES1 251245Z 20005KT 21/21 A2997 RMK A01 T02080206  RH  099%=      5-min Rain = 0
KES1 251246Z 21004KT 21/21 A2997 RMK A01 T02080206  RH  099%=      5-min Rain = 0
KES1 251247Z 21005KT 21/21 A2997 RMK A01 T02080206  RH  099%=      5-min Rain = 0
KES1 251248Z 21006KT 21/21 A2997 RMK A01 T02080206  RH  099%=      5-min Rain = 0
KES1 251249Z 21005KT 21/21 A2997 RMK A01 T02080205  RH  099%=      5-min Rain = 0
KES1 251250Z 21005KT 21/21 A2996 RMK A01 T02080205  RH  099%=      5-min Rain = 0
KES1 251251Z 21005KT 21/21 A2997 RMK A01 T02080205  RH  099%=      5-min Rain = 0
KES1 251252Z 21005KT 21/21 A2997 RMK A01 T02080206  RH  099%=      5-min Rain = 0
KES1 251253Z 20004KT 21/21 A2997 RMK A01 T02090206  RH  099%=      5-min Rain = 0
KES1 251254Z 19003KT 21/21 A2997 RMK A01 T02090206  RH  099%=      5-min Rain = 0
KES1 251255Z 19004KT 21/21 A2997 RMK A01 T02090207  RH  099%=      5-min Rain = 0
KES1 251256Z 20004KT 21/21 A2997 RMK A01 T02100208  RH  099%=      5-min Rain = 0
KES1 251257Z 20003KT 21/21 A2997 RMK A01 T02100208  RH  099%=      5-min Rain = 0
KES1 251258Z 21002KT 21/21 A2997 RMK A01 T02100208  RH  099%=      5-min Rain = 0
KES1 251259Z 18003KT 21/21 A2997 RMK A01 T02110209  RH  099%=      5-min Rain = 0
KES1 251300Z 18003KT 21/21 A2997 RMK A01 T02110209  RH  099%=      5-min Rain = 0
KES1 251301Z 19002KT 21/21 A2997 RMK A01 T02110209  RH  099%=      5-min Rain = 0
KES1 251302Z 21003KT 21/21 A2997 RMK A01 T02110209  RH  099%=      5-min Rain = 0
KES1 251303Z 18002KT 21/21 A2997 RMK A01 T02100208  RH  098%=      5-min Rain = 0
KES1 251304Z 21001KT 21/21 A2997 RMK A01 T02100208  RH  098%=      5-min Rain = 0
KES1 251305Z 21002KT 21/21 A2997 RMK A01 T02110209  RH  099%=      5-min Rain = 0
KES1 251306Z 21002KT 21/21 A2997 RMK A01 T02120209  RH  098%=      5-min Rain = 0
KES1 251307Z 21002KT 21/21 A2997 RMK A01 T02130211  RH  098%=      5-min Rain = 0
KES1 251308Z 22003KT 21/21 A2997 RMK A01 T02140211  RH  098%=      5-min Rain = 0
KES1 251309Z 20003KT 21/21 A2997 RMK A01 T02140211  RH  098%=      5-min Rain = 0
KES1 251310Z 20004KT 21/21 A2997 RMK A01 T02120210  RH  098%=      5-min Rain = 0
KES1 251311Z 22003KT 21/21 A2997 RMK A01 T02110209  RH  098%=      5-min Rain = 0
KES1 251312Z 21003KT 21/21 A2997 RMK A01 T02110208  RH  098%=      5-min Rain = 0
KES1 251313Z 22003KT 21/21 A2997 RMK A01 T02120209  RH  098%=      5-min Rain = 0
KES1 251314Z 21003KT 21/21 A2997 RMK A01 T02140211  RH  098%=      5-min Rain = 0
KES1 251315Z 19004KT 22/21 A2997 RMK A01 T02150212  RH  098%=      5-min Rain = 0
KES1 251316Z 20004KT 21/21 A2997 RMK A01 T02130209  RH  098%=      5-min Rain = 0
KES1 251317Z 20004KT 21/21 A2997 RMK A01 T02130209  RH  098%=      5-min Rain = 0
KES1 251318Z 20004KT 21/21 A2997 RMK A01 T02130209  RH  098%=      5-min Rain = 0
KES1 251319Z 19004KT 21/21 A2997 RMK A01 T02130209  RH  098%=      5-min Rain = 0
KES1 251320Z 19004KT 21/21 A2998 RMK A01 T02130209  RH  097%=      5-min Rain = 0
KES1 251321Z 19005KT 21/21 A2998 RMK A01 T02130208  RH  097%=      5-min Rain = 0
KES1 251322Z 19005KT 21/21 A2998 RMK A01 T02130208  RH  097%=      5-min Rain = 0
KES1 251323Z 18004KT 21/21 A2998 RMK A01 T02140209  RH  097%=      5-min Rain = 0
KES1 251324Z 16005KT 22/21 A2998 RMK A01 T02160211  RH  097%=      5-min Rain = 0
KES1 251325Z 18004KT 22/21 A2998 RMK A01 T02170211  RH  096%=      5-min Rain = 0
KES1 251326Z 19005KT 22/21 A2998 RMK A01 T02180210  RH  095%=      5-min Rain = 0
KES1 251327Z 20003KT 22/21 A2998 RMK A01 T02190209  RH  094%=      5-min Rain = 0
KES1 251328Z 17002KT 22/21 A2998 RMK A01 T02210210  RH  094%=      5-min Rain = 0
KES1 251329Z 16005KT 22/21 A2998 RMK A01 T02220210  RH  093%=      5-min Rain = 0
KES1 251330Z 17004KT 22/21 A2998 RMK A01 T02240208  RH  091%=      5-min Rain = 0
KES1 251331Z 17005KT 22/21 A2998 RMK A01 T02240207  RH  090%=      5-min Rain = 0
KES1 251332Z 17004KT 23/21 A2998 RMK A01 T02250207  RH  090%=      5-min Rain = 0
KES1 251333Z 17004KT 23/21 A2998 RMK A01 T02270209  RH  090%=      5-min Rain = 0
KES1 251334Z 16004KT 23/21 A2998 RMK A01 T02290209  RH  089%=      5-min Rain = 0
KES1 251335Z 16004KT 23/21 A2998 RMK A01 T02300210  RH  088%=      5-min Rain = 0
KES1 251336Z 16005KT 23/21 A2998 RMK A01 T02310209  RH  087%=      5-min Rain = 0
KES1 251337Z 15005KT 23/21 A2998 RMK A01 T02310207  RH  086%=      5-min Rain = 0
KES1 251338Z 17006KT 23/21 A2998 RMK A01 T02310206  RH  086%=      5-min Rain = 0
KES1 251339Z 17004KT 23/20 A2998 RMK A01 T02310204  RH  084%=      5-min Rain = 0
KES1 251340Z 17005KT 23/21 A2998 RMK A01 T02310205  RH  085%=      5-min Rain = 0
KES1 251341Z 18005KT 23/20 A2998 RMK A01 T02320204  RH  084%=      5-min Rain = 0
KES1 251342Z 19004KT 23/21 A2998 RMK A01 T02320206  RH  085%=      5-min Rain = 0
KES1 251343Z 16004KT 23/21 A2998 RMK A01 T02320207  RH  086%=      5-min Rain = 0
KES1 251344Z 16004KT 23/21 A2998 RMK A01 T02330207  RH  086%=      5-min Rain = 0
KES1 251345Z 17006KT 24/21 A2998 RMK A01 T02360207  RH  084%=      5-min Rain = 0
KES1 251346Z 18007KT 24/20 A2998 RMK A01 T02370204  RH  082%=      5-min Rain = 0
KES1 251347Z 18007KT 24/20 A2998 RMK A01 T02370204  RH  082%=      5-min Rain = 0
KES1 251348Z 17007KT 24/20 A2998 RMK A01 T02360203  RH  081%=      5-min Rain = 0
KES1 251349Z 16006KT 24/20 A2998 RMK A01 T02370202  RH  081%=      5-min Rain = 0
KES1 251350Z 17007KT 24/20 A2999 RMK A01 T02400202  RH  080%=      5-min Rain = 0
KES1 251351Z 17007KT 24/20 A2999 RMK A01 T02410202  RH  079%=      5-min Rain = 0
KES1 251352Z 18008KT 24/20 A2999 RMK A01 T02410202  RH  079%=      5-min Rain = 0
KES1 251353Z 18009KT 24/20 A2999 RMK A01 T02410201  RH  078%=      5-min Rain = 0
KES1 251354Z 17006KT 24/20 A2999 RMK A01 T02420201  RH  078%=      5-min Rain = 0
KES1 251355Z 17006KT 24/20 A2999 RMK A01 T02430203  RH  078%=      5-min Rain = 0
KES1 251356Z 16007KT 25/20 A2999 RMK A01 T02450202  RH  077%=      5-min Rain = 0
KES1 251357Z 17008KT 25/20 A2999 RMK A01 T02460200  RH  076%=      5-min Rain = 0
KES1 251358Z 16009KT 25/20 A2999 RMK A01 T02460198  RH  075%=      5-min Rain = 0
KES1 251359Z 16009KT 25/20 A2999 RMK A01 T02470196  RH  073%=      5-min Rain = 0
KES1 251400Z 16010KT 25/20 A2999 RMK A01 T02480196  RH  073%=      5-min Rain = 0
KES1 251401Z 16010KT 25/20 A2999 RMK A01 T02490195  RH  072%=      5-min Rain = 0
KES1 251402Z 16009KT 25/19 A2999 RMK A01 T02500194  RH  071%=      5-min Rain = 0
KES1 251403Z 16009KT 25/19 A2999 RMK A01 T02500194  RH  071%=      5-min Rain = 0
KES1 251404Z 16007KT 25/20 A2999 RMK A01 T02520195  RH  071%=      5-min Rain = 0
KES1 251405Z 18006KT 25/20 A2999 RMK A01 T02540198  RH  071%=      5-min Rain = 0
KES1 251406Z 18006KT 26/20 A2999 RMK A01 T02560197  RH  070%=      5-min Rain = 0
KES1 251407Z 18008KT 26/19 A2999 RMK A01 T02570194  RH  068%=      5-min Rain = 0
KES1 251408Z 20007KT 26/19 A2998 RMK A01 T02570193  RH  068%=      5-min Rain = 0
KES1 251409Z 18008KT 26/19 A2998 RMK A01 T02560191  RH  067%=      5-min Rain = 0
KES1 251410Z 17009KT 26/19 A2998 RMK A01 T02570190  RH  066%=      5-min Rain = 0
KES1 251411Z 18008KT 26/19 A2998 RMK A01 T02570191  RH  067%=      5-min Rain = 0
KES1 251412Z 17008KT 26/19 A2998 RMK A01 T02580189  RH  066%=      5-min Rain = 0
KES1 251413Z 17007KT 26/19 A2998 RMK A01 T02580190  RH  066%=      5-min Rain = 0
KES1 251414Z 18007KT 26/19 A2998 RMK A01 T02590191  RH  066%=      5-min Rain = 0
KES1 251415Z 18009KT 26/19 A2998 RMK A01 T02600185  RH  063%=      5-min Rain = 0
KES1 251416Z 19008KT 26/18 A2998 RMK A01 T02610182  RH  062%=      5-min Rain = 0
KES1 251417Z 17007KT 26/19 A2998 RMK A01 T02610187  RH  064%=      5-min Rain = 0
KES1 251418Z 17007KT 26/19 A2998 RMK A01 T02620188  RH  064%=      5-min Rain = 0
KES1 251419Z 17008KT 26/19 A2998 RMK A01 T02630188  RH  063%=      5-min Rain = 0
KES1 251420Z 18007KT 26/19 A2998 RMK A01 T02640187  RH  063%=      5-min Rain = 0
KES1 251421Z 18008KT 26/18 A2998 RMK A01 T02640183  RH  061%=      5-min Rain = 0
KES1 251422Z 19009KT 26/18 A2998 RMK A01 T02640177  RH  059%=      5-min Rain = 0
KES1 251423Z 19008KT 26/18 A2998 RMK A01 T02630175  RH  058%=      5-min Rain = 0
KES1 251424Z 19008KT 26/18 A2998 RMK A01 T02620176  RH  059%=      5-min Rain = 0
KES1 251425Z 19009KT 26/18 A2998 RMK A01 T02620177  RH  059%=      5-min Rain = 0
KES1 251426Z 19007KT 26/18 A2998 RMK A01 T02620177  RH  060%=      5-min Rain = 0
KES1 251427Z 19008KT 26/18 A2998 RMK A01 T02620180  RH  060%=      5-min Rain = 0
KES1 251428Z 19005KT 26/18 A2998 RMK A01 T02630178  RH  060%=      5-min Rain = 0
KES1 251429Z 20007KT 26/18 A2998 RMK A01 T02620179  RH  060%=      5-min Rain = 0
KES1 251430Z 19006KT 26/18 A2998 RMK A01 T02630179  RH  060%=      5-min Rain = 0
KES1 251431Z 19005KT 26/18 A2998 RMK A01 T02640179  RH  060%=      5-min Rain = 0
KES1 251432Z 18004KT 27/18 A2998 RMK A01 T02670182  RH  059%=      5-min Rain = 0
KES1 251433Z 20005KT 27/18 A2998 RMK A01 T02710181  RH  058%=      5-min Rain = 0
KES1 251434Z 20006KT 27/18 A2998 RMK A01 T02720177  RH  056%=      5-min Rain = 0
KES1 251435Z 19005KT 27/18 A2998 RMK A01 T02710175  RH  056%=      5-min Rain = 0
KES1 251436Z 19005KT 27/17 A2998 RMK A01 T02700172  RH  055%=      5-min Rain = 0
KES1 251437Z 20006KT 27/17 A2998 RMK A01 T02710171  RH  055%=      5-min Rain = 0
KES1 251438Z 22006KT 27/17 A2998 RMK A01 T02700169  RH  054%=      5-min Rain = 0
KES1 251439Z 22005KT 27/17 A2998 RMK A01 T02710173  RH  055%=      5-min Rain = 0
KES1 251440Z 21005KT 27/17 A2998 RMK A01 T02720174  RH  055%=      5-min Rain = 0
KES1 251441Z 21006KT 28/17 A2998 RMK A01 T02750171  RH  053%=      5-min Rain = 0
KES1 251442Z 20004KT 28/17 A2998 RMK A01 T02750173  RH  054%=      5-min Rain = 0
KES1 251443Z 20005KT 28/17 A2998 RMK A01 T02770173  RH  053%=      5-min Rain = 0
KES1 251444Z 21004KT 28/17 A2998 RMK A01 T02770170  RH  052%=      5-min Rain = 0
KES1 251445Z 21003KT 28/17 A2998 RMK A01 T02760171  RH  053%=      5-min Rain = 0
KES1 251446Z 19005KT 28/17 A2998 RMK A01 T02760172  RH  053%=      5-min Rain = 0
KES1 251447Z 21004KT 28/17 A2998 RMK A01 T02750173  RH  054%=      5-min Rain = 0
KES1 251448Z 20005KT 28/18 A2998 RMK A01 T02770176  RH  054%=      5-min Rain = 0
KES1 251449Z 19005KT 28/17 A2998 RMK A01 T02790172  RH  052%=      5-min Rain = 0
KES1 251450Z 20006KT 28/17 A2998 RMK A01 T02770172  RH  053%=      5-min Rain = 0
KES1 251451Z 21006KT 28/17 A2998 RMK A01 T02780168  RH  051%=      5-min Rain = 0
KES1 251452Z 22005KT 28/16 A2998 RMK A01 T02790164  RH  050%=      5-min Rain = 0
KES1 251453Z 22007KT 28/17 A2998 RMK A01 T02770167  RH  051%=      5-min Rain = 0
KES1 251454Z 23005KT 28/17 A2998 RMK A01 T02780167  RH  051%=      5-min Rain = 0
KES1 251455Z 22003KT 28/17 A2998 RMK A01 T02800166  RH  050%=      5-min Rain = 0
KES1 251456Z 22004KT 28/17 A2998 RMK A01 T02800167  RH  050%=      5-min Rain = 0
KES1 251457Z 22004KT 28/17 A2998 RMK A01 T02810169  RH  051%=      5-min Rain = 0
KES1 251458Z 20004KT 28/17 A2998 RMK A01 T02800168  RH  051%=      5-min Rain = 0
KES1 251459Z 20006KT 28/17 A2998 RMK A01 T02790169  RH  051%=      5-min Rain = 0
KES1 251500Z 24004KT 28/17 A2998 RMK A01 T02790169  RH  051%=      5-min Rain = 0
KES1 251501Z 23004KT 28/17 A2998 RMK A01 T02800171  RH  051%=      5-min Rain = 0
KES1 251502Z 21005KT 28/17 A2998 RMK A01 T02830172  RH  051%=      5-min Rain = 0
KES1 251503Z 21006KT 29/17 A2998 RMK A01 T02870173  RH  050%=      5-min Rain = 0
KES1 251504Z 25006KT 29/17 A2998 RMK A01 T02870171  RH  049%=      5-min Rain = 0
KES1 251505Z 25005KT 29/17 A2998 RMK A01 T02860170  RH  049%=      5-min Rain = 0
KES1 251506Z 25004KT 28/17 A2998 RMK A01 T02840169  RH  050%=      5-min Rain = 0
KES1 251507Z 25004KT 28/17 A2998 RMK A01 T02830171  RH  051%=      5-min Rain = 0
KES1 251508Z 23007KT 29/17 A2998 RMK A01 T02850165  RH  048%=      5-min Rain = 0
KES1 251509Z 23008KT 29/16 A2998 RMK A01 T02850163  RH  048%=      5-min Rain = 0
KES1 251510Z 24005KT 29/16 A2998 RMK A01 T02850163  RH  047%=      5-min Rain = 0
KES1 251511Z 24006KT 28/16 A2998 RMK A01 T02840163  RH  048%=      5-min Rain = 0
KES1 251512Z 23006KT 28/16 A2998 RMK A01 T02840162  RH  047%=      5-min Rain = 0
KES1 251513Z 25004KT 29/16 A2998 RMK A01 T02850164  RH  048%=      5-min Rain = 0
KES1 251514Z 25005KT 29/17 A2998 RMK A01 T02870165  RH  048%=      5-min Rain = 0
KES1 251515Z 25005KT 29/16 A2998 RMK A01 T02880164  RH  047%=      5-min Rain = 0
KES1 251516Z 22007KT 29/16 A2998 RMK A01 T02880163  RH  047%=      5-min Rain = 0
KES1 251517Z 23010KT 29/16 A2998 RMK A01 T02890160  RH  046%=      5-min Rain = 0
KES1 251518Z 23006KT 29/16 A2998 RMK A01 T02900160  RH  046%=      5-min Rain = 0
KES1 251519Z 24008KT 29/16 A2998 RMK A01 T02910160  RH  045%=      5-min Rain = 0
KES1 251520Z 24009KT 29/16 A2998 RMK A01 T02910161  RH  045%=      5-min Rain = 0
KES1 251521Z 24010KT 29/16 A2998 RMK A01 T02920158  RH  044%=      5-min Rain = 0
KES1 251522Z 25011KT 29/16 A2998 RMK A01 T02910156  RH  044%=      5-min Rain = 0
KES1 251523Z 24011KT 29/16 A2998 RMK A01 T02890156  RH  044%=      5-min Rain = 0
KES1 251524Z 24011KT 29/16 A2998 RMK A01 T02890159  RH  045%=      5-min Rain = 0
KES1 251525Z 26007KT 29/16 A2998 RMK A01 T02890159  RH  045%=      5-min Rain = 0
KES1 251526Z 27008KT 29/16 A2998 RMK A01 T02890159  RH  045%=      5-min Rain = 0
KES1 251527Z 24008KT 29/16 A2998 RMK A01 T02900160  RH  045%=      5-min Rain = 0
KES1 251528Z 26005KT 29/16 A2998 RMK A01 T02910160  RH  045%=      5-min Rain = 0
KES1 251529Z 26005KT 29/16 A2998 RMK A01 T02910161  RH  045%=      5-min Rain = 0
KES1 251530Z 27008KT 29/16 A2998 RMK A01 T02910162  RH  045%=      5-min Rain = 0
KES1 251531Z 27009KT 29/16 A2998 RMK A01 T02920163  RH  045%=      5-min Rain = 0
KES1 251532Z 26008KT 29/16 A2998 RMK A01 T02920164  RH  046%=      5-min Rain = 0
KES1 251533Z 24005KT 29/16 A2998 RMK A01 T02930164  RH  046%=      5-min Rain = 0
KES1 251534Z 25006KT 29/17 A2998 RMK A01 T02930165  RH  046%=      5-min Rain = 0
KES1 251535Z 26007KT 29/17 A2998 RMK A01 T02940166  RH  046%=      5-min Rain = 0
KES1 251541Z 23007G15KT 30/17 A2997 RMK A01 T02970166  RH  045%=      5-min Rain = 0
KES1 251542Z 26008KT 30/17 A2998 RMK A01 T02980168  RH  046%=      5-min Rain = 0
KES1 251543Z 25005KT 30/17 A2997 RMK A01 T02970166  RH  045%=      5-min Rain = 0
KES1 251544Z 27005KT 30/17 A2997 RMK A01 T02960166  RH  046%=      5-min Rain = 0
KES1 251545Z 25008KT 30/17 A2997 RMK A01 T02960168  RH  046%=      5-min Rain = 0
KES1 251546Z 24010KT 30/17 A2997 RMK A01 T02970166  RH  045%=      5-min Rain = 0
KES1 251547Z 23010KT 30/17 A2997 RMK A01 T02960166  RH  045%=      5-min Rain = 0
KES1 251548Z 24007G12KT 30/17 A2997 RMK A01 T02950166  RH  046%=      5-min Rain = 0
KES1 251549Z 23009KT 30/17 A2997 RMK A01 T02950167  RH  046%=      5-min Rain = 0
KES1 251550Z 24010KT 30/17 A2997 RMK A01 T02970167  RH  045%=      5-min Rain = 0
KES1 251551Z 25007KT 30/17 A2997 RMK A01 T02980168  RH  046%=      5-min Rain = 0
KES1 251552Z 25006KT 30/17 A2997 RMK A01 T03000168  RH  045%=      5-min Rain = 0
KES1 251553Z 24006KT 30/17 A2997 RMK A01 T03010168  RH  045%=      5-min Rain = 0
KES1 251554Z 23006KT 30/17 A2997 RMK A01 T03010168  RH  045%=      5-min Rain = 0
KES1 251555Z 23009KT 30/17 A2997 RMK A01 T03010168  RH  045%=      5-min Rain = 0
KES1 251556Z 23006KT 30/17 A2997 RMK A01 T03010165  RH  044%=      5-min Rain = 0
KES1 251557Z 22008KT 30/17 A2997 RMK A01 T02980165  RH  045%=      5-min Rain = 0
KES1 251558Z 22007KT 30/17 A2997 RMK A01 T02980165  RH  045%=      5-min Rain = 0
KES1 251559Z 23008KT 30/17 A2997 RMK A01 T02980165  RH  045%=      5-min Rain = 0
KES1 251600Z 22008KT 30/17 A2997 RMK A01 T02980167  RH  045%=      5-min Rain = 0
KES1 251601Z 22008KT 30/17 A2997 RMK A01 T03000166  RH  045%=      5-min Rain = 0
KES1 251602Z 24007KT 30/17 A2997 RMK A01 T03000167  RH  045%=      5-min Rain = 0
KES1 251603Z 22007KT 30/17 A2997 RMK A01 T03010168  RH  045%=      5-min Rain = 0
KES1 251604Z 23006KT 30/17 A2998 RMK A01 T03020167  RH  044%=      5-min Rain = 0
KES1 251605Z 21004KT 30/17 A2998 RMK A01 T03010169  RH  045%=      5-min Rain = 0
KES1 251606Z 23005KT 30/17 A2998 RMK A01 T03040169  RH  044%=      5-min Rain = 0
KES1 251607Z 22003KT 31/17 A2998 RMK A01 T03050169  RH  044%=      5-min Rain = 0
KES1 251608Z 29003KT 31/17 A2998 RMK A01 T03070172  RH  044%=      5-min Rain = 0
KES1 251609Z 27005KT 31/17 A2998 RMK A01 T03100170  RH  043%=      5-min Rain = 0
KES1 251610Z 25006KT 31/17 A2998 RMK A01 T03090168  RH  043%=      5-min Rain = 0
KES1 251611Z 25008KT 31/17 A2998 RMK A01 T03070171  RH  044%=      5-min Rain = 0
KES1 251612Z 24007KT 31/17 A2998 RMK A01 T03090169  RH  043%=      5-min Rain = 0
KES1 251613Z 27006KT 31/17 A2998 RMK A01 T03070169  RH  043%=      5-min Rain = 0
KES1 251614Z 25007KT 30/17 A2998 RMK A01 T03030168  RH  044%=      5-min Rain = 0
KES1 251615Z 26007KT 30/17 A2998 RMK A01 T03030168  RH  044%=      5-min Rain = 0
KES1 251616Z 26006KT 30/17 A2998 RMK A01 T03030168  RH  044%=      5-min Rain = 0
KES1 251617Z 28004KT 30/17 A2998 RMK A01 T03040167  RH  044%=      5-min Rain = 0
KES1 251618Z 29003KT 30/17 A2998 RMK A01 T03030169  RH  044%=      5-min Rain = 0
KES1 251619Z 24005KT 30/17 A2998 RMK A01 T03040171  RH  045%=      5-min Rain = 0
KES1 251620Z 22007KT 31/17 A2998 RMK A01 T03080169  RH  043%=      5-min Rain = 0
KES1 251621Z 23004KT 31/17 A2998 RMK A01 T03080169  RH  043%=      5-min Rain = 0
KES1 251622Z 22004KT 31/17 A2998 RMK A01 T03080169  RH  043%=      5-min Rain = 0
KES1 251623Z 20003KT 31/17 A2998 RMK A01 T03090169  RH  043%=      5-min Rain = 0
KES1 251624Z 26002KT 31/17 A2998 RMK A01 T03090167  RH  043%=      5-min Rain = 0
KES1 251625Z 27003KT 31/17 A2998 RMK A01 T03090169  RH  043%=      5-min Rain = 0
KES1 251626Z 29003KT 31/17 A2998 RMK A01 T03090170  RH  043%=      5-min Rain = 0
KES1 251627Z 28005KT 31/17 A2998 RMK A01 T03100170  RH  043%=      5-min Rain = 0
KES1 251628Z 24005KT 31/17 A2998 RMK A01 T03110172  RH  043%=      5-min Rain = 0
KES1 251629Z 26007KT 31/17 A2998 RMK A01 T03130170  RH  042%=      5-min Rain = 0
KES1 251630Z 28005KT 31/17 A2998 RMK A01 T03120170  RH  043%=      5-min Rain = 0
KES1 251631Z 24006KT 31/17 A2998 RMK A01 T03120171  RH  043%=      5-min Rain = 0
KES1 251632Z 24007KT 31/17 A2998 RMK A01 T03130170  RH  042%=      5-min Rain = 0
KES1 251633Z 23006KT 31/17 A2998 RMK A01 T03120170  RH  043%=      5-min Rain = 0
KES1 251634Z 21006KT 31/17 A2998 RMK A01 T03120170  RH  042%=      5-min Rain = 0
KES1 251635Z 19004KT 31/17 A2998 RMK A01 T03120169  RH  042%=      5-min Rain = 0
KES1 251636Z 18003KT 31/17 A2998 RMK A01 T03130171  RH  043%=      5-min Rain = 0
KES1 251637Z 17005KT 32/17 A2998 RMK A01 T03160170  RH  042%=      5-min Rain = 0
KES1 251638Z 15005KT 32/17 A2998 RMK A01 T03160169  RH  041%=      5-min Rain = 0
KES1 251639Z 16004KT 32/17 A2998 RMK A01 T03150170  RH  042%=      5-min Rain = 0
KES1 251640Z 19007KT 32/17 A2998 RMK A01 T03170171  RH  042%=      5-min Rain = 0
KES1 251641Z 21008KT 32/17 A2998 RMK A01 T03190170  RH  041%=      5-min Rain = 0
KES1 251642Z 20008KT 32/17 A2998 RMK A01 T03180170  RH  041%=      5-min Rain = 0
KES1 251643Z 20007KT 31/17 A2998 RMK A01 T03130168  RH  042%=      5-min Rain = 0
KES1 251644Z 25005KT 31/17 A2998 RMK A01 T03120170  RH  043%=      5-min Rain = 0
KES1 251645Z 24004KT 31/17 A2998 RMK A01 T03140169  RH  042%=      5-min Rain = 0
KES1 251646Z 23006KT 32/17 A2997 RMK A01 T03160169  RH  041%=      5-min Rain = 0
KES1 251647Z 20008KT 32/17 A2997 RMK A01 T03180170  RH  041%=      5-min Rain = 0
KES1 251648Z 21008KT 32/17 A2997 RMK A01 T03180169  RH  041%=      5-min Rain = 0
KES1 251649Z 21008KT 32/17 A2997 RMK A01 T03170169  RH  041%=      5-min Rain = 0
KES1 251650Z 19006KT 32/17 A2997 RMK A01 T03170168  RH  041%=      5-min Rain = 0
KES1 251651Z 22006KT 32/17 A2997 RMK A01 T03150169  RH  042%=      5-min Rain = 0
KES1 251652Z 22004KT 31/17 A2998 RMK A01 T03140167  RH  041%=      5-min Rain = 0
KES1 251653Z 19004KT 31/17 A2997 RMK A01 T03120165  RH  041%=      5-min Rain = 0
KES1 251654Z 17004KT 31/17 A2997 RMK A01 T03110166  RH  042%=      5-min Rain = 0
KES1 251655Z 18004KT 31/17 A2997 RMK A01 T03120169  RH  042%=      5-min Rain = 0
KES1 251656Z 24001KT 32/17 A2997 RMK A01 T03150166  RH  041%=      5-min Rain = 0
KES1 251657Z 21003KT 32/17 A2997 RMK A01 T03160168  RH  041%=      5-min Rain = 0
KES1 251658Z 19004KT 32/17 A2997 RMK A01 T03180172  RH  042%=      5-min Rain = 0
KES1 251659Z 16005KT 32/17 A2997 RMK A01 T03210170  RH  040%=      5-min Rain = 0
KES1 251700Z 13005KT 32/17 A2997 RMK A01 T03200168  RH  040%=      5-min Rain = 0
KES1 251701Z 15003KT 32/17 A2997 RMK A01 T03170168  RH  041%=      5-min Rain = 0
KES1 251702Z 21006KT 32/17 A2997 RMK A01 T03170170  RH  041%=      5-min Rain = 0
KES1 251703Z 17006KT 32/17 A2997 RMK A01 T03200171  RH  041%=      5-min Rain = 0
KES1 251704Z 16007KT 32/17 A2997 RMK A01 T03220171  RH  041%=      5-min Rain = 0
KES1 251705Z 15006KT 32/17 A2997 RMK A01 T03230172  RH  041%=      5-min Rain = 0
KES1 251706Z 15004KT 32/17 A2997 RMK A01 T03230170  RH  040%=      5-min Rain = 0
KES1 251707Z 15007KT 32/17 A2997 RMK A01 T03200172  RH  041%=      5-min Rain = 0
KES1 251708Z 15006KT 32/17 A2997 RMK A01 T03210171  RH  041%=      5-min Rain = 0
KES1 251709Z 15004KT 32/17 A2997 RMK A01 T03210171  RH  041%=      5-min Rain = 0
KES1 251710Z 13003KT 32/17 A2997 RMK A01 T03210172  RH  041%=      5-min Rain = 0
KES1 251711Z 17003KT 32/17 A2997 RMK A01 T03210169  RH  040%=      5-min Rain = 0
KES1 251712Z 17002KT 32/17 A2997 RMK A01 T03190168  RH  040%=      5-min Rain = 0
KES1 251713Z 18005KT 32/17 A2997 RMK A01 T03170169  RH  041%=      5-min Rain = 0
KES1 251714Z 19006KT 32/17 A2997 RMK A01 T03180169  RH  041%=      5-min Rain = 0
KES1 251715Z 21005KT 32/17 A2997 RMK A01 T03180168  RH  041%=      5-min Rain = 0
KES1 251716Z 21006KT 32/17 A2997 RMK A01 T03200168  RH  040%=      5-min Rain = 0
KES1 251717Z 23009KT 32/17 A2997 RMK A01 T03220171  RH  040%=      5-min Rain = 0
KES1 251718Z 22008KT 32/17 A2997 RMK A01 T03240168  RH  039%=      5-min Rain = 0
KES1 251719Z 20007KT 32/17 A2997 RMK A01 T03230168  RH  040%=      5-min Rain = 0
KES1 251720Z 19005KT 32/17 A2997 RMK A01 T03190168  RH  040%=      5-min Rain = 0
KES1 251721Z 15006KT 32/17 A2997 RMK A01 T03200170  RH  041%=      5-min Rain = 0
KES1 251722Z 16006KT 32/17 A2997 RMK A01 T03220170  RH  040%=      5-min Rain = 0
KES1 251723Z 14004KT 32/17 A2997 RMK A01 T03240169  RH  040%=      5-min Rain = 0
KES1 251724Z 13005KT 32/17 A2997 RMK A01 T03240170  RH  040%=      5-min Rain = 0
KES1 251725Z 13005KT 33/17 A2997 RMK A01 T03250171  RH  040%=      5-min Rain = 0
KES1 251726Z 14005KT 33/17 A2997 RMK A01 T03260171  RH  040%=      5-min Rain = 0
KES1 251727Z 14004KT 33/17 A2997 RMK A01 T03270169  RH  039%=      5-min Rain = 0
KES1 251728Z 11002KT 32/17 A2997 RMK A01 T03240168  RH  039%=      5-min Rain = 0
KES1 251729Z 23001KT 32/17 A2997 RMK A01 T03220168  RH  040%=      5-min Rain = 0
KES1 251730Z 20002KT 32/17 A2997 RMK A01 T03230168  RH  039%=      5-min Rain = 0
KES1 251731Z 22005KT 33/17 A2997 RMK A01 T03250168  RH  039%=      5-min Rain = 0
KES1 251732Z 21007KT 33/17 A2997 RMK A01 T03280168  RH  038%=      5-min Rain = 0
KES1 251733Z 20007KT 33/17 A2997 RMK A01 T03270166  RH  038%=      5-min Rain = 0
KES1 251734Z 19005KT 32/17 A2997 RMK A01 T03240166  RH  039%=      5-min Rain = 0
KES1 251735Z 20005KT 32/17 A2997 RMK A01 T03240165  RH  039%=      5-min Rain = 0
KES1 251736Z 19004KT 33/17 A2997 RMK A01 T03250165  RH  039%=      5-min Rain = 0
KES1 251737Z 24007KT 33/17 A2997 RMK A01 T03250166  RH  039%=      5-min Rain = 0
KES1 251738Z 26005KT 33/17 A2997 RMK A01 T03260167  RH  039%=      5-min Rain = 0
KES1 251739Z 26005KT 33/17 A2997 RMK A01 T03280166  RH  038%=      5-min Rain = 0
KES1 251740Z 26004KT 33/17 A2997 RMK A01 T03290168  RH  038%=      5-min Rain = 0
KES1 251741Z 28004KT 33/17 A2997 RMK A01 T03300168  RH  038%=      5-min Rain = 0
KES1 251742Z 31002KT 33/17 A2997 RMK A01 T03290169  RH  038%=      5-min Rain = 0
KES1 251743Z 31001KT 33/17 A2997 RMK A01 T03290169  RH  038%=      5-min Rain = 0
KES1 251744Z 17002KT 33/17 A2997 RMK A01 T03300168  RH  038%=      5-min Rain = 0
KES1 251745Z 22005KT 33/17 A2997 RMK A01 T03310169  RH  038%=      5-min Rain = 0
KES1 251746Z 23005KT 33/17 A2997 RMK A01 T03310168  RH  038%=      5-min Rain = 0
KES1 251747Z 21002KT 33/17 A2996 RMK A01 T03300168  RH  038%=      5-min Rain = 0
KES1 251748Z 26001KT 33/17 A2996 RMK A01 T03290167  RH  038%=      5-min Rain = 0
KES1 251749Z 18005G11KT 33/17 A2996 RMK A01 T03290168  RH  038%=      5-min Rain = 0
KES1 251750Z 21009KT 33/17 A2996 RMK A01 T03320166  RH  037%=      5-min Rain = 0
KES1 251751Z 19008KT 34/16 A2996 RMK A01 T03350164  RH  036%=      5-min Rain = 0
KES1 251752Z 19007KT 34/16 A2996 RMK A01 T03360164  RH  036%=      5-min Rain = 0
KES1 251753Z 20008KT 33/17 A2996 RMK A01 T03340166  RH  037%=      5-min Rain = 0
KES1 251754Z 21009KT 34/17 A2996 RMK A01 T03350167  RH  037%=      5-min Rain = 0
KES1 251755Z 21006KT 33/17 A2996 RMK A01 T03330166  RH  037%=      5-min Rain = 0
KES1 251756Z 23002KT 33/17 A2996 RMK A01 T03320165  RH  037%=      5-min Rain = 0
KES1 251757Z 21003KT 33/17 A2996 RMK A01 T03320165  RH  037%=      5-min Rain = 0
KES1 251758Z 21004KT 33/17 A2996 RMK A01 T03340167  RH  037%=      5-min Rain = 0
KES1 251759Z 22005KT 34/17 A2996 RMK A01 T03370169  RH  037%=      5-min Rain = 0
KES1 251800Z 22006KT 34/17 A2996 RMK A01 T03390167  RH  036%=      5-min Rain = 0
KES1 251801Z 21006KT 34/17 A2996 RMK A01 T03380167  RH  036%=      5-min Rain = 0
KES1 251802Z 22006KT 33/17 A2996 RMK A01 T03340166  RH  037%=      5-min Rain = 0
KES1 251803Z 20003KT 33/17 A2996 RMK A01 T03340165  RH  037%=      5-min Rain = 0
KES1 251804Z 17002KT 33/16 A2996 RMK A01 T03340164  RH  036%=      5-min Rain = 0
KES1 251805Z 16003KT 34/17 A2996 RMK A01 T03350167  RH  037%=      5-min Rain = 0
KES1 251806Z 19005KT 34/17 A2996 RMK A01 T03360165  RH  036%=      5-min Rain = 0
KES1 251807Z 21002KT 34/17 A2996 RMK A01 T03350166  RH  036%=      5-min Rain = 0
KES1 251808Z 13002KT 33/17 A2996 RMK A01 T03340168  RH  037%=      5-min Rain = 0
KES1 251809Z 14002KT 34/17 A2996 RMK A01 T03350172  RH  038%=      5-min Rain = 0
KES1 251810Z 29001KT 34/17 A2996 RMK A01 T03370169  RH  037%=      5-min Rain = 0
KES1 251811Z 25001KT 34/17 A2996 RMK A01 T03370171  RH  037%=      5-min Rain = 0
KES1 251812Z 27003KT 34/17 A2996 RMK A01 T03390170  RH  037%=      5-min Rain = 0
KES1 251813Z 24005KT 34/17 A2996 RMK A01 T03420168  RH  035%=      5-min Rain = 0
KES1 251814Z 21002KT 34/17 A2996 RMK A01 T03390166  RH  036%=      5-min Rain = 0
KES1 251815Z 18004KT 34/17 A2996 RMK A01 T03360169  RH  037%=      5-min Rain = 0
KES1 251816Z 16006KT 34/17 A2996 RMK A01 T03350173  RH  038%=      5-min Rain = 0
KES1 251817Z 12004KT 33/18 A2996 RMK A01 T03340177  RH  039%=      5-min Rain = 0
KES1 251818Z 10006KT 34/18 A2996 RMK A01 T03380177  RH  038%=      5-min Rain = 0
KES1 251819Z 08002KT 34/18 A2996 RMK A01 T03380175  RH  038%=      5-min Rain = 0
KES1 251820Z 15006KT 34/18 A2996 RMK A01 T03370176  RH  038%=      5-min Rain = 0
KES1 251821Z 15004KT 34/18 A2996 RMK A01 T03390176  RH  038%=      5-min Rain = 0
KES1 251822Z 12004G9KT 34/17 A2996 RMK A01 T03410174  RH  037%=      5-min Rain = 0
KES1 251823Z 12007KT 34/18 A2996 RMK A01 T03400176  RH  038%=      5-min Rain = 0
KES1 251824Z 12007KT 34/18 A2995 RMK A01 T03390175  RH  038%=      5-min Rain = 0
KES1 251825Z 14008KT 34/18 A2995 RMK A01 T03380175  RH  038%=      5-min Rain = 0
KES1 251826Z 14008KT 34/17 A2995 RMK A01 T03390173  RH  037%=      5-min Rain = 0
KES1 251827Z 13007KT 34/18 A2995 RMK A01 T03400178  RH  038%=      5-min Rain = 0
KES1 251828Z 13008KT 34/18 A2995 RMK A01 T03430175  RH  037%=      5-min Rain = 0
KES1 251829Z 15009KT 34/18 A2995 RMK A01 T03420177  RH  038%=      5-min Rain = 0
KES1 251830Z 18008KT 34/18 A2996 RMK A01 T03440175  RH  037%=      5-min Rain = 0
KES1 251831Z 17004KT 34/17 A2996 RMK A01 T03390171  RH  037%=      5-min Rain = 0
KES1 251832Z 21005KT 34/17 A2996 RMK A01 T03360173  RH  038%=      5-min Rain = 0
KES1 251833Z 23003KT 34/17 A2996 RMK A01 T03360171  RH  038%=      5-min Rain = 0
KES1 251834Z 16002KT 34/17 A2996 RMK A01 T03360172  RH  038%=      5-min Rain = 0
KES1 251835Z 13008KT 34/17 A2996 RMK A01 T03360173  RH  038%=      5-min Rain = 0
KES1 251836Z 12007KT 34/17 A2996 RMK A01 T03380172  RH  037%=      5-min Rain = 0
KES1 251837Z 12009KT 34/17 A2996 RMK A01 T03390174  RH  038%=      5-min Rain = 0
KES1 251838Z 11006KT 34/17 A2996 RMK A01 T03390171  RH  037%=      5-min Rain = 0
KES1 251839Z 09004KT 34/18 A2996 RMK A01 T03380176  RH  038%=      5-min Rain = 0
KES1 251840Z 08007KT 34/17 A2995 RMK A01 T03420174  RH  037%=      5-min Rain = 0
KES1 251841Z 09007KT 34/17 A2995 RMK A01 T03410172  RH  037%=      5-min Rain = 0
KES1 251842Z 10007KT 34/17 A2995 RMK A01 T03380173  RH  037%=      5-min Rain = 0
KES1 251843Z 11007KT 34/18 A2995 RMK A01 T03400176  RH  038%=      5-min Rain = 0
KES1 251844Z 14009KT 35/17 A2996 RMK A01 T03450174  RH  036%=      5-min Rain = 0
KES1 251845Z 14009KT 35/17 A2996 RMK A01 T03460170  RH  035%=      5-min Rain = 0
KES1 251846Z 14009KT 34/17 A2996 RMK A01 T03440170  RH  035%=      5-min Rain = 0
KES1 251847Z 16008KT 35/17 A2996 RMK A01 T03450170  RH  035%=      5-min Rain = 0
KES1 251848Z 15005KT 35/17 A2996 RMK A01 T03470171  RH  035%=      5-min Rain = 0
KES1 251849Z 14006KT 35/17 A2996 RMK A01 T03500173  RH  035%=      5-min Rain = 0
KES1 251850Z 14004KT 35/17 A2996 RMK A01 T03520170  RH  034%=      5-min Rain = 0
KES1 251851Z 12002KT 35/16 A2996 RMK A01 T03470164  RH  034%=      5-min Rain = 0
KES1 251852Z 13003KT 34/17 A2996 RMK A01 T03410165  RH  035%=      5-min Rain = 0
KES1 251853Z 15003KT 34/17 A2995 RMK A01 T03410169  RH  036%=      5-min Rain = 0
KES1 251854Z 18004KT 35/17 A2995 RMK A01 T03450168  RH  035%=      5-min Rain = 0
KES1 251855Z 13007KT 35/17 A2995 RMK A01 T03480171  RH  035%=      5-min Rain = 0
KES1 251856Z 11007KT 35/17 A2995 RMK A01 T03480170  RH  035%=      5-min Rain = 0
KES1 251857Z 14006KT 35/17 A2995 RMK A01 T03450168  RH  035%=      5-min Rain = 0
KES1 251858Z 14009KT 35/17 A2995 RMK A01 T03450171  RH  036%=      5-min Rain = 0
KES1 251859Z 13007KT 35/17 A2995 RMK A01 T03480169  RH  035%=      5-min Rain = 0
KES1 251900Z 15007KT 35/17 A2995 RMK A01 T03510174  RH  035%=      5-min Rain = 0
KES1 251901Z 11008KT 36/17 A2995 RMK A01 T03550171  RH  034%=      5-min Rain = 0
KES1 251902Z 10008KT 35/17 A2995 RMK A01 T03500167  RH  034%=      5-min Rain = 0
KES1 251903Z 11007KT 35/17 A2995 RMK A01 T03460167  RH  035%=      5-min Rain = 0
KES1 251904Z 14006KT 35/17 A2995 RMK A01 T03450169  RH  035%=      5-min Rain = 0
KES1 251905Z 16009KT 35/17 A2995 RMK A01 T03490168  RH  034%=      5-min Rain = 0
KES1 251906Z 17008KT 35/17 A2995 RMK A01 T03520167  RH  033%=      5-min Rain = 0
KES1 251907Z 16009KT 35/17 A2995 RMK A01 T03520167  RH  033%=      5-min Rain = 0
KES1 251908Z 15008KT 35/17 A2995 RMK A01 T03530168  RH  033%=      5-min Rain = 0
KES1 251909Z 13006KT 35/17 A2995 RMK A01 T03540165  RH  033%=      5-min Rain = 0
KES1 251910Z 18004KT 35/16 A2995 RMK A01 T03520164  RH  033%=      5-min Rain = 0
KES1 251911Z 16006KT 35/17 A2995 RMK A01 T03510165  RH  033%=      5-min Rain = 0
KES1 251912Z 13009KT 35/17 A2995 RMK A01 T03520170  RH  034%=      5-min Rain = 0
KES1 251913Z 14006KT 36/17 A2995 RMK A01 T03560170  RH  033%=      5-min Rain = 0
KES1 251914Z 15004KT 36/17 A2995 RMK A01 T03560167  RH  033%=      5-min Rain = 0
KES1 251915Z 12003KT 35/16 A2995 RMK A01 T03520164  RH  033%=      5-min Rain = 0
KES1 251916Z 09007KT 35/17 A2995 RMK A01 T03490166  RH  034%=      5-min Rain = 0
KES1 251917Z 10005KT 35/17 A2995 RMK A01 T03470165  RH  034%=      5-min Rain = 0
KES1 251918Z 13008G13KT 35/17 A2995 RMK A01 T03450165  RH  034%=      5-min Rain = 0
KES1 251919Z 15012KT 35/17 A2995 RMK A01 T03460171  RH  035%=      5-min Rain = 0
KES1 251920Z 14010G15KT 35/17 A2995 RMK A01 T03470172  RH  035%=      5-min Rain = 0
KES1 251921Z 16012KT 35/18 A2995 RMK A01 T03480175  RH  036%=      5-min Rain = 0
KES1 251922Z 14011KT 35/18 A2995 RMK A01 T03500175  RH  036%=      5-min Rain = 0
KES1 251923Z 15010KT 35/18 A2995 RMK A01 T03520176  RH  035%=      5-min Rain = 0
KES1 251924Z 16009KT 35/17 A2995 RMK A01 T03520172  RH  034%=      5-min Rain = 0
KES1 251925Z 14009KT 35/17 A2995 RMK A01 T03490173  RH  035%=      5-min Rain = 0
KES1 251926Z 14008KT 35/17 A2995 RMK A01 T03480172  RH  035%=      5-min Rain = 0
KES1 251927Z 14009KT 35/17 A2995 RMK A01 T03470174  RH  036%=      5-min Rain = 0
KES1 251928Z 14013KT 35/17 A2995 RMK A01 T03490174  RH  036%=      5-min Rain = 0
KES1 251929Z 15008KT 35/17 A2995 RMK A01 T03490172  RH  035%=      5-min Rain = 0
KES1 251930Z 13007KT 35/18 A2995 RMK A01 T03490176  RH  036%=      5-min Rain = 0
KES1 251931Z 13010KT 35/17 A2995 RMK A01 T03520172  RH  035%=      5-min Rain = 0
KES1 251932Z 13008G13KT 35/17 A2995 RMK A01 T03510171  RH  034%=      5-min Rain = 0
KES1 251933Z 13011KT 35/17 A2995 RMK A01 T03500169  RH  034%=      5-min Rain = 0
KES1 251934Z 13008KT 35/17 A2995 RMK A01 T03480170  RH  035%=      5-min Rain = 0
KES1 251935Z 13008KT 35/17 A2995 RMK A01 T03480172  RH  035%=      5-min Rain = 0
KES1 251936Z 12008KT 35/17 A2995 RMK A01 T03500174  RH  035%=      5-min Rain = 0
KES1 251937Z 12010KT 35/17 A2995 RMK A01 T03500173  RH  035%=      5-min Rain = 0
KES1 251938Z 15007KT 35/17 A2995 RMK A01 T03490170  RH  035%=      5-min Rain = 0
KES1 251939Z 16010KT 35/17 A2995 RMK A01 T03480172  RH  035%=      5-min Rain = 0
KES1 251940Z 11010KT 35/18 A2995 RMK A01 T03500175  RH  036%=      5-min Rain = 0
KES1 251941Z 12009KT 35/17 A2995 RMK A01 T03470171  RH  035%=      5-min Rain = 0
KES1 251942Z 11007KT 34/17 A2995 RMK A01 T03430170  RH  036%=      5-min Rain = 0
KES1 251943Z 12008KT 34/17 A2994 RMK A01 T03420171  RH  036%=      5-min Rain = 0
KES1 251944Z 12009KT 34/17 A2994 RMK A01 T03440171  RH  036%=      5-min Rain = 0
KES1 251945Z 13008KT 35/17 A2994 RMK A01 T03450173  RH  036%=      5-min Rain = 0
KES1 251946Z 10007KT 35/17 A2994 RMK A01 T03490173  RH  035%=      5-min Rain = 0
KES1 251947Z 15005G11KT 35/18 A2994 RMK A01 T03500175  RH  036%=      5-min Rain = 0
KES1 251948Z 15015KT 35/18 A2994 RMK A01 T03530176  RH  035%=      5-min Rain = 0
KES1 251949Z 14012KT 35/18 A2994 RMK A01 T03530175  RH  035%=      5-min Rain = 0
KES1 251950Z 14010KT 35/18 A2994 RMK A01 T03530177  RH  035%=      5-min Rain = 0
KES1 251951Z 14012KT 36/18 A2994 RMK A01 T03570177  RH  035%=      5-min Rain = 0
KES1 251952Z 14010KT 36/17 A2994 RMK A01 T03560174  RH  034%=      5-min Rain = 0
KES1 251953Z 15014KT 35/17 A2994 RMK A01 T03510174  RH  035%=      5-min Rain = 0
KES1 251954Z 15013G18KT 35/17 A2994 RMK A01 T03500174  RH  035%=      5-min Rain = 0
KES1 251955Z 15011KT 35/18 A2994 RMK A01 T03490175  RH  036%=      5-min Rain = 0
KES1 251956Z 15012KT 35/18 A2994 RMK A01 T03500175  RH  036%=      5-min Rain = 0
KES1 251957Z 15010KT 35/17 A2994 RMK A01 T03520174  RH  035%=      5-min Rain = 0
KES1 251958Z 15011G16KT 35/18 A2994 RMK A01 T03510175  RH  035%=      5-min Rain = 0
KES1 251959Z 13009KT 35/18 A2994 RMK A01 T03500175  RH  035%=      5-min Rain = 0
KES1 252000Z 15007KT 35/17 A2994 RMK A01 T03470174  RH  036%=      5-min Rain = 0
KES1 252001Z 15009KT 35/18 A2994 RMK A01 T03470176  RH  036%=      5-min Rain = 0
KES1 252002Z 14009KT 35/18 A2994 RMK A01 T03500176  RH  036%=      5-min Rain = 0
KES1 252003Z 14008KT 35/18 A2994 RMK A01 T03520177  RH  036%=      5-min Rain = 0
KES1 252004Z 12009KT 35/18 A2993 RMK A01 T03540176  RH  035%=      5-min Rain = 0
KES1 252005Z 11010KT 35/17 A2993 RMK A01 T03520173  RH  035%=      5-min Rain = 0
KES1 252006Z 12009KT 35/18 A2993 RMK A01 T03510177  RH  036%=      5-min Rain = 0
KES1 252007Z 11011KT 35/18 A2993 RMK A01 T03520175  RH  035%=      5-min Rain = 0
KES1 252008Z 12012KT 35/17 A2993 RMK A01 T03490174  RH  035%=      5-min Rain = 0
KES1 252009Z 12010KT 35/17 A2993 RMK A01 T03470174  RH  036%=      5-min Rain = 0
KES1 252010Z 14008KT 35/18 A2993 RMK A01 T03480176  RH  036%=      5-min Rain = 0
KES1 252011Z 13010KT 35/18 A2993 RMK A01 T03510178  RH  036%=      5-min Rain = 0
KES1 252012Z 11009KT 35/18 A2993 RMK A01 T03520178  RH  036%=      5-min Rain = 0
KES1 252013Z 12013KT 35/18 A2993 RMK A01 T03530179  RH  036%=      5-min Rain = 0
KES1 252014Z 13010KT 35/17 A2993 RMK A01 T03520173  RH  035%=      5-min Rain = 0
KES1 252015Z 13007KT 35/17 A2993 RMK A01 T03490174  RH  036%=      5-min Rain = 0
KES1 252016Z 11006KT 35/17 A2993 RMK A01 T03500173  RH  035%=      5-min Rain = 0
KES1 252017Z 11009KT 35/17 A2993 RMK A01 T03500174  RH  035%=      5-min Rain = 0
KES1 252018Z 13010KT 35/18 A2993 RMK A01 T03540177  RH  035%=      5-min Rain = 0
KES1 252019Z 14009G14KT 36/17 A2993 RMK A01 T03570174  RH  034%=      5-min Rain = 0
KES1 252020Z 13009G14KT 35/17 A2993 RMK A01 T03530173  RH  035%=      5-min Rain = 0
KES1 252021Z 15013KT 35/18 A2993 RMK A01 T03520176  RH  036%=      5-min Rain = 0
KES1 252022Z 13009KT 35/18 A2993 RMK A01 T03530178  RH  036%=      5-min Rain = 0
KES1 252023Z 16008KT 36/18 A2993 RMK A01 T03560181  RH  036%=      5-min Rain = 0
KES1 252024Z 15008KT 36/18 A2993 RMK A01 T03580178  RH  035%=      5-min Rain = 0
KES1 252025Z 11010KT 36/18 A2993 RMK A01 T03560179  RH  035%=      5-min Rain = 0
KES1 252026Z 11009KT 36/18 A2993 RMK A01 T03560176  RH  035%=      5-min Rain = 0
KES1 252027Z 11008KT 35/17 A2993 RMK A01 T03520174  RH  035%=      5-min Rain = 0
KES1 252028Z 12012KT 35/18 A2993 RMK A01 T03500176  RH  036%=      5-min Rain = 0
KES1 252029Z 13012KT 35/18 A2993 RMK A01 T03520177  RH  035%=      5-min Rain = 0
KES1 252030Z 12011KT 35/18 A2993 RMK A01 T03530178  RH  035%=      5-min Rain = 0
KES1 252031Z 12007KT 35/18 A2993 RMK A01 T03530179  RH  036%=      5-min Rain = 0
KES1 252032Z 18005KT 36/18 A2993 RMK A01 T03550180  RH  036%=      5-min Rain = 0
KES1 252033Z 15004KT 36/18 A2993 RMK A01 T03600180  RH  035%=      5-min Rain = 0
KES1 252034Z 15006KT 36/18 A2992 RMK A01 T03630178  RH  034%=      5-min Rain = 0
KES1 252035Z 13008KT 36/18 A2992 RMK A01 T03630183  RH  035%=      5-min Rain = 0
KES1 252036Z 15007G15KT 36/18 A2992 RMK A01 T03640183  RH  034%=      5-min Rain = 0
KES1 252037Z 17004KT 37/18 A2992 RMK A01 T03650182  RH  034%=      5-min Rain = 0
KES1 252038Z 16010KT 37/18 A2992 RMK A01 T03650183  RH  034%=      5-min Rain = 0
KES1 252039Z 14008KT 37/18 A2992 RMK A01 T03650179  RH  034%=      5-min Rain = 0
KES1 252040Z 12011KT 36/18 A2992 RMK A01 T03630179  RH  034%=      5-min Rain = 0
KES1 252041Z 11013KT 36/17 A2992 RMK A01 T03600170  RH  033%=      5-min Rain = 0
KES1 252042Z 10010KT 35/17 A2992 RMK A01 T03540168  RH  033%=      5-min Rain = 0
KES1 252043Z 10014KT 35/17 A2991 RMK A01 T03520170  RH  034%=      5-min Rain = 0
KES1 252044Z 11010KT 35/17 A2992 RMK A01 T03520170  RH  034%=      5-min Rain = 0
KES1 252045Z 12011KT 35/17 A2992 RMK A01 T03530172  RH  034%=      5-min Rain = 0
KES1 252046Z 15009KT 36/17 A2992 RMK A01 T03570173  RH  034%=      5-min Rain = 0
KES1 252047Z 17009KT 36/17 A2992 RMK A01 T03610174  RH  033%=      5-min Rain = 0
KES1 252048Z 17009KT 36/17 A2992 RMK A01 T03630174  RH  033%=      5-min Rain = 0
KES1 252049Z 13009KT 36/17 A2992 RMK A01 T03640173  RH  032%=      5-min Rain = 0
KES1 252050Z 13012KT 36/17 A2992 RMK A01 T03610173  RH  033%=      5-min Rain = 0
KES1 252051Z 13012KT 36/17 A2992 RMK A01 T03590173  RH  033%=      5-min Rain = 0
KES1 252052Z 12010KT 36/17 A2991 RMK A01 T03580171  RH  033%=      5-min Rain = 0
KES1 252053Z 11007G12KT 35/17 A2991 RMK A01 T03520169  RH  034%=      5-min Rain = 0
KES1 252054Z 13012KT 35/17 A2991 RMK A01 T03510173  RH  035%=      5-min Rain = 0
KES1 252055Z 16012KT 36/18 A2991 RMK A01 T03550175  RH  035%=      5-min Rain = 0
KES1 252056Z 17011KT 36/17 A2991 RMK A01 T03550174  RH  034%=      5-min Rain = 0
KES1 252057Z 14011KT 36/18 A2991 RMK A01 T03550177  RH  035%=      5-min Rain = 0
KES1 252058Z 16014KT 36/18 A2991 RMK A01 T03580175  RH  034%=      5-min Rain = 0
KES1 252059Z 16016KT 36/17 A2991 RMK A01 T03580174  RH  034%=      5-min Rain = 0
KES1 252100Z 13014KT 36/17 A2991 RMK A01 T03570174  RH  034%=      5-min Rain = 0
KES1 252101Z 13013KT 36/18 A2991 RMK A01 T03570175  RH  034%=      5-min Rain = 0
KES1 252102Z 13012KT 36/18 A2991 RMK A01 T03560178  RH  035%=      5-min Rain = 0
KES1 252103Z 14012G17KT 36/18 A2991 RMK A01 T03560181  RH  036%=      5-min Rain = 0
KES1 252104Z 14016KT 36/18 A2991 RMK A01 T03580182  RH  036%=      5-min Rain = 0
KES1 252105Z 16015KT 36/18 A2991 RMK A01 T03580181  RH  035%=      5-min Rain = 0
KES1 252106Z 15012KT 36/18 A2991 RMK A01 T03560179  RH  035%=      5-min Rain = 0
KES1 252107Z 14012KT 35/18 A2991 RMK A01 T03540178  RH  035%=      5-min Rain = 0
KES1 252108Z 15014KT 36/18 A2991 RMK A01 T03550181  RH  036%=      5-min Rain = 0
KES1 252109Z 16012KT 35/18 A2991 RMK A01 T03540182  RH  036%=      5-min Rain = 0
KES1 252110Z 17012KT 35/18 A2991 RMK A01 T03540183  RH  036%=      5-min Rain = 0
KES1 252111Z 15012KT 35/18 A2991 RMK A01 T03520183  RH  037%=      5-min Rain = 0
KES1 252112Z 13013KT 35/18 A299 RMK A01 T03520183  RH  037%=      5-min Rain = 0
KES1 252113Z 15017KT 35/18 A2991 RMK A01 T03540182  RH  036%=      5-min Rain = 0
KES1 252114Z 15016KT 35/18 A2991 RMK A01 T03540178  RH  035%=      5-min Rain = 0
KES1 252115Z 14012KT 35/18 A2991 RMK A01 T03510179  RH  036%=      5-min Rain = 0
KES1 252116Z 16010KT 35/18 A2991 RMK A01 T03520179  RH  036%=      5-min Rain = 0
KES1 252117Z 15011G16KT 35/18 A2991 RMK A01 T03540182  RH  036%=      5-min Rain = 0
KES1 252118Z 14011G18KT 36/18 A2991 RMK A01 T03580184  RH  036%=      5-min Rain = 0
KES1 252119Z 13014KT 36/18 A299 RMK A01 T03590183  RH  036%=      5-min Rain = 0
KES1 252120Z 14016G21KT 36/18 A2991 RMK A01 T03560181  RH  036%=      5-min Rain = 0
KES1 252121Z 15015G22KT 36/18 A299 RMK A01 T03550180  RH  036%=      5-min Rain = 0
KES1 252122Z 14011KT 35/18 A299 RMK A01 T03520180  RH  036%=      5-min Rain = 0
KES1 252123Z 15010KT 35/18 A2991 RMK A01 T03530181  RH  036%=      5-min Rain = 0
KES1 252124Z 15014KT 36/18 A299 RMK A01 T03570177  RH  035%=      5-min Rain = 0
KES1 252125Z 14010G15KT 36/18 A299 RMK A01 T03550176  RH  035%=      5-min Rain = 0
KES1 252126Z 14008KT 36/18 A299 RMK A01 T03550177  RH  035%=      5-min Rain = 0
KES1 252127Z 14011G18KT 36/18 A299 RMK A01 T03560177  RH  035%=      5-min Rain = 0
KES1 252128Z 16016KT 36/18 A299 RMK A01 T03550178  RH  035%=      5-min Rain = 0
KES1 252129Z 14012KT 35/18 A299 RMK A01 T03530178  RH  036%=      5-min Rain = 0
KES1 252130Z 14012G17KT 35/18 A299 RMK A01 T03530178  RH  035%=      5-min Rain = 0
KES1 252131Z 14014G21KT 35/18 A299 RMK A01 T03530176  RH  035%=      5-min Rain = 0
KES1 252132Z 13015KT 35/18 A299 RMK A01 T03510176  RH  036%=      5-min Rain = 0
KES1 252133Z 13015KT 35/18 A299 RMK A01 T03480176  RH  036%=      5-min Rain = 0
KES1 252134Z 13012KT 35/18 A299 RMK A01 T03480175  RH  036%=      5-min Rain = 0
KES1 252135Z 13012G17KT 35/18 A299 RMK A01 T03460177  RH  037%=      5-min Rain = 0
KES1 252136Z 12014G19KT 35/18 A299 RMK A01 T03480177  RH  036%=      5-min Rain = 0
KES1 252137Z 13014KT 35/18 A299 RMK A01 T03500180  RH  037%=      5-min Rain = 0
KES1 252138Z 14013KT 35/18 A299 RMK A01 T03510178  RH  036%=      5-min Rain = 0
KES1 252139Z 16009G14KT 35/18 A299 RMK A01 T03520178  RH  036%=      5-min Rain = 0
KES1 252140Z 18012G17KT 35/17 A299 RMK A01 T03530174  RH  035%=      5-min Rain = 0
KES1 252141Z 17012KT 36/17 A299 RMK A01 T03550174  RH  034%=      5-min Rain = 0
KES1 252142Z 17011KT 36/17 A299 RMK A01 T03560172  RH  034%=      5-min Rain = 0
KES1 252143Z 16010G15KT 35/17 A299 RMK A01 T03540172  RH  034%=      5-min Rain = 0
KES1 252144Z 15011KT 35/17 A299 RMK A01 T03540174  RH  035%=      5-min Rain = 0
KES1 252145Z 13015G20KT 36/17 A299 RMK A01 T03560173  RH  034%=      5-min Rain = 0
KES1 252146Z 13013G18KT 36/17 A299 RMK A01 T03550169  RH  033%=      5-min Rain = 0
KES1 252147Z 14011KT 35/17 A299 RMK A01 T03530171  RH  034%=      5-min Rain = 0
KES1 252148Z 13013KT 35/17 A299 RMK A01 T03540169  RH  033%=      5-min Rain = 0
KES1 252149Z 14014KT 35/17 A299 RMK A01 T03530169  RH  034%=      5-min Rain = 0
KES1 252150Z 14013KT 35/17 A299 RMK A01 T03530165  RH  033%=      5-min Rain = 0
KES1 252151Z 15013KT 35/17 A299 RMK A01 T03520165  RH  033%=      5-min Rain = 0
KES1 252152Z 14014KT 35/17 A299 RMK A01 T03520169  RH  034%=      5-min Rain = 0
KES1 252153Z 14012KT 35/17 A299 RMK A01 T03520170  RH  034%=      5-min Rain = 0
KES1 252154Z 14011G16KT 35/17 A299 RMK A01 T03500171  RH  035%=      5-min Rain = 0
KES1 252155Z 15011KT 35/17 A299 RMK A01 T03520174  RH  035%=      5-min Rain = 0
KES1 252156Z 16015KT 36/17 A299 RMK A01 T03570174  RH  034%=      5-min Rain = 0
KES1 252157Z 15015KT 36/17 A299 RMK A01 T03550171  RH  034%=      5-min Rain = 0
KES1 252158Z 16013KT 35/17 A299 RMK A01 T03520171  RH  034%=      5-min Rain = 0
KES1 252159Z 17014KT 35/17 A299 RMK A01 T03510166  RH  033%=      5-min Rain = 0
KES1 252200Z 17012KT 35/17 A299 RMK A01 T03500166  RH  034%=      5-min Rain = 0
KES1 252201Z 17011KT 35/17 A299 RMK A01 T03500166  RH  034%=      5-min Rain = 0
KES1 252202Z 16014G19KT 35/17 A299 RMK A01 T03500166  RH  034%=      5-min Rain = 0
KES1 252203Z 14012G17KT 35/17 A299 RMK A01 T03500166  RH  034%=      5-min Rain = 0
KES1 252204Z 14013KT 35/17 A299 RMK A01 T03500167  RH  034%=      5-min Rain = 0
KES1 252205Z 14013KT 35/17 A299 RMK A01 T03490168  RH  034%=      5-min Rain = 0
KES1 252206Z 14013KT 35/17 A299 RMK A01 T03500170  RH  035%=      5-min Rain = 0
KES1 252207Z 17009KT 35/17 A299 RMK A01 T03510173  RH  035%=      5-min Rain = 0
KES1 252208Z 16011G17KT 36/17 A299 RMK A01 T03550172  RH  034%=      5-min Rain = 0
KES1 252209Z 17013G18KT 36/17 A299 RMK A01 T03550170  RH  033%=      5-min Rain = 0
KES1 252210Z 16012KT 35/17 A299 RMK A01 T03540171  RH  034%=      5-min Rain = 0
KES1 252211Z 16011KT 35/17 A299 RMK A01 T03530171  RH  034%=      5-min Rain = 0
KES1 252212Z 15014KT 35/17 A299 RMK A01 T03530170  RH  034%=      5-min Rain = 0
KES1 252213Z 15014KT 35/17 A299 RMK A01 T03510167  RH  033%=      5-min Rain = 0
KES1 252214Z 14015KT 35/17 A299 RMK A01 T03500166  RH  034%=      5-min Rain = 0
KES1 252215Z 15014KT 35/16 A299 RMK A01 T03490164  RH  033%=      5-min Rain = 0
KES1 252216Z 17014KT 35/16 A299 RMK A01 T03490162  RH  033%=      5-min Rain = 0
KES1 252217Z 13012G17KT 35/16 A299 RMK A01 T03480164  RH  034%=      5-min Rain = 0
KES1 252218Z 15014KT 35/17 A299 RMK A01 T03460167  RH  035%=      5-min Rain = 0
KES1 252219Z 15014KT 35/17 A2989 RMK A01 T03450169  RH  035%=      5-min Rain = 0
KES1 252220Z 16015KT 34/17 A2989 RMK A01 T03440169  RH  035%=      5-min Rain = 0
KES1 252221Z 15013KT 34/17 A2989 RMK A01 T03440169  RH  035%=      5-min Rain = 0
KES1 252222Z 15013KT 34/17 A2989 RMK A01 T03440170  RH  036%=      5-min Rain = 0
KES1 252223Z 14015KT 34/17 A2989 RMK A01 T03440168  RH  035%=      5-min Rain = 0
KES1 252224Z 16014KT 34/17 A2989 RMK A01 T03430165  RH  035%=      5-min Rain = 0
KES1 252225Z 15014KT 34/17 A2989 RMK A01 T03410166  RH  035%=      5-min Rain = 0
KES1 252226Z 16012KT 34/17 A2989 RMK A01 T03400167  RH  036%=      5-min Rain = 0
KES1 252227Z 15011G17KT 34/17 A2989 RMK A01 T03400167  RH  036%=      5-min Rain = 0
KES1 252228Z 15013KT 34/17 A2989 RMK A01 T03410166  RH  035%=      5-min Rain = 0
KES1 252229Z 16013KT 34/16 A2989 RMK A01 T03410164  RH  035%=      5-min Rain = 0
KES1 252230Z 17013KT 34/16 A2989 RMK A01 T03420162  RH  034%=      5-min Rain = 0
KES1 252231Z 16012KT 34/16 A2989 RMK A01 T03420161  RH  034%=      5-min Rain = 0
KES1 252232Z 16014KT 34/16 A2989 RMK A01 T03420164  RH  035%=      5-min Rain = 0
KES1 252233Z 16013KT 34/16 A299 RMK A01 T03430163  RH  034%=      5-min Rain = 0
KES1 252234Z 15013G18KT 34/16 A299 RMK A01 T03430163  RH  034%=      5-min Rain = 0
KES1 252235Z 14013KT 34/16 A299 RMK A01 T03440164  RH  034%=      5-min Rain = 0
KES1 252236Z 15011KT 34/17 A299 RMK A01 T03430165  RH  035%=      5-min Rain = 0
KES1 252237Z 16012KT 34/16 A299 RMK A01 T03430164  RH  034%=      5-min Rain = 0
KES1 252238Z 18013KT 34/16 A299 RMK A01 T03430163  RH  034%=      5-min Rain = 0
KES1 252239Z 17013KT 34/16 A299 RMK A01 T03430163  RH  034%=      5-min Rain = 0
KES1 252240Z 16010KT 34/16 A299 RMK A01 T03420162  RH  034%=      5-min Rain = 0
KES1 252241Z 15012KT 34/16 A299 RMK A01 T03420164  RH  034%=      5-min Rain = 0
KES1 252242Z 16006KT 34/17 A299 RMK A01 T03430167  RH  035%=      5-min Rain = 0
KES1 252243Z 14013KT 35/17 A299 RMK A01 T03470167  RH  034%=      5-min Rain = 0
KES1 252244Z 15014G19KT 35/17 A299 RMK A01 T03490166  RH  034%=      5-min Rain = 0
KES1 252245Z 14014KT 35/17 A299 RMK A01 T03490171  RH  035%=      5-min Rain = 0
KES1 252246Z 14017KT 35/17 A299 RMK A01 T03490172  RH  035%=      5-min Rain = 0
KES1 252247Z 14012G17KT 35/17 A299 RMK A01 T03460171  RH  035%=      5-min Rain = 0
KES1 252248Z 15016KT 34/17 A299 RMK A01 T03440171  RH  036%=      5-min Rain = 0
KES1 252249Z 15015KT 34/17 A299 RMK A01 T03430171  RH  036%=      5-min Rain = 0
KES1 252250Z 14012KT 34/17 A299 RMK A01 T03420171  RH  036%=      5-min Rain = 0
KES1 252251Z 14014KT 34/17 A2989 RMK A01 T03410170  RH  036%=      5-min Rain = 0
KES1 252252Z 15012KT 34/17 A2989 RMK A01 T03410169  RH  036%=      5-min Rain = 0
KES1 252253Z 14014KT 34/17 A2989 RMK A01 T03420168  RH  036%=      5-min Rain = 0
KES1 252254Z 15016KT 34/17 A2989 RMK A01 T03420167  RH  035%=      5-min Rain = 0
KES1 252255Z 15013KT 34/17 A2989 RMK A01 T03410167  RH  035%=      5-min Rain = 0
KES1 252256Z 15017KT 34/17 A2988 RMK A01 T03400168  RH  036%=      5-min Rain = 0
KES1 252257Z 14016KT 34/17 A2988 RMK A01 T03400169  RH  036%=      5-min Rain = 0
KES1 252258Z 14013KT 34/17 A2988 RMK A01 T03390170  RH  037%=      5-min Rain = 0
KES1 252259Z 14012KT 34/17 A2988 RMK A01 T03390170  RH  037%=      5-min Rain = 0
KES1 252300Z 14014KT 34/17 A2988 RMK A01 T03390167  RH  036%=      5-min Rain = 0
KES1 252301Z 14012KT 34/17 A2988 RMK A01 T03380168  RH  036%=      5-min Rain = 0
KES1 252302Z 15013KT 34/17 A2988 RMK A01 T03380170  RH  037%=      5-min Rain = 0
KES1 252303Z 14014KT 34/17 A2988 RMK A01 T03390170  RH  037%=      5-min Rain = 0
KES1 252304Z 15012KT 34/17 A2988 RMK A01 T03380170  RH  037%=      5-min Rain = 0
KES1 252305Z 14013KT 34/17 A2988 RMK A01 T03370171  RH  037%=      5-min Rain = 0
KES1 252306Z 15013KT 34/17 A2988 RMK A01 T03360171  RH  037%=      5-min Rain = 0
KES1 252307Z 16009KT 34/17 A2988 RMK A01 T03350171  RH  038%=      5-min Rain = 0
KES1 252308Z 16013KT 33/17 A2988 RMK A01 T03340169  RH  037%=      5-min Rain = 0
KES1 252309Z 16013KT 33/17 A2989 RMK A01 T03330166  RH  037%=      5-min Rain = 0
KES1 252310Z 17014KT 33/17 A2989 RMK A01 T03310165  RH  037%=      5-min Rain = 0
KES1 252311Z 15012KT 33/17 A2989 RMK A01 T03300166  RH  037%=      5-min Rain = 0
KES1 252312Z 16011KT 33/17 A299 RMK A01 T03300167  RH  038%=      5-min Rain = 0
KES1 252313Z 16012KT 33/17 A299 RMK A01 T03290166  RH  038%=      5-min Rain = 0
KES1 252314Z 15011G16KT 33/16 A299 RMK A01 T03290164  RH  037%=      5-min Rain = 0
KES1 252315Z 15010G17KT 33/17 A299 RMK A01 T03290165  RH  037%=      5-min Rain = 0
KES1 252316Z 15013KT 33/16 A2991 RMK A01 T03280164  RH  037%=      5-min Rain = 0
KES1 252317Z 16012KT 33/16 A2991 RMK A01 T03270163  RH  037%=      5-min Rain = 0
KES1 252318Z 15011KT 33/16 A2991 RMK A01 T03270163  RH  037%=      5-min Rain = 0
KES1 252319Z 16012KT 33/16 A2991 RMK A01 T03260164  RH  038%=      5-min Rain = 0
KES1 252320Z 16012KT 33/17 A2991 RMK A01 T03260165  RH  038%=      5-min Rain = 0
KES1 252321Z 16012KT 33/17 A2991 RMK A01 T03260165  RH  038%=      5-min Rain = 0
KES1 252322Z 16011KT 33/17 A2991 RMK A01 T03250165  RH  038%=      5-min Rain = 0
KES1 252323Z 15011KT 33/17 A2991 RMK A01 T03250165  RH  038%=      5-min Rain = 0
KES1 252324Z 15012KT 32/17 A2991 RMK A01 T03240166  RH  039%=      5-min Rain = 0
KES1 252325Z 15011KT 32/17 A2991 RMK A01 T03240166  RH  039%=      5-min Rain = 0
KES1 252326Z 15009KT 32/17 A2991 RMK A01 T03240167  RH  039%=      5-min Rain = 0
KES1 252327Z 15009KT 32/17 A2991 RMK A01 T03230167  RH  039%=      5-min Rain = 0
KES1 252328Z 15012KT 32/17 A299 RMK A01 T03220167  RH  039%=      5-min Rain = 0
KES1 252329Z 15010KT 32/17 A299 RMK A01 T03220166  RH  039%=      5-min Rain = 0
KES1 252330Z 15011KT 32/16 A299 RMK A01 T03220164  RH  039%=      5-min Rain = 0
KES1 252331Z 15011KT 32/16 A299 RMK A01 T03210164  RH  039%=      5-min Rain = 0
KES1 252332Z 15011KT 32/16 A299 RMK A01 T03210164  RH  039%=      5-min Rain = 0
KES1 252333Z 14010KT 32/16 A2989 RMK A01 T03210164  RH  039%=      5-min Rain = 0
KES1 252334Z 14009KT 32/16 A2989 RMK A01 T03200164  RH  039%=      5-min Rain = 0
KES1 252335Z 14010KT 32/17 A2989 RMK A01 T03200165  RH  039%=      5-min Rain = 0
KES1 252336Z 15008KT 32/17 A2989 RMK A01 T03200165  RH  040%=      5-min Rain = 0
KES1 252337Z 14009KT 32/17 A2989 RMK A01 T03190165  RH  040%=      5-min Rain = 0
KES1 252338Z 14011KT 32/16 A299 RMK A01 T03190164  RH  040%=      5-min Rain = 0
KES1 252339Z 14010KT 32/16 A299 RMK A01 T03190164  RH  039%=      5-min Rain = 0
KES1 252340Z 15010KT 32/16 A299 RMK A01 T03190163  RH  039%=      5-min Rain = 0
KES1 252341Z 15010KT 32/16 A299 RMK A01 T03180162  RH  039%=      5-min Rain = 0
KES1 252342Z 15011KT 32/16 A299 RMK A01 T03180160  RH  039%=      5-min Rain = 0
KES1 252343Z 15010KT 32/16 A299 RMK A01 T03180158  RH  038%=      5-min Rain = 0
KES1 252344Z 15011KT 32/16 A299 RMK A01 T03170157  RH  038%=      5-min Rain = 0
KES1 252345Z 15010KT 32/16 A2991 RMK A01 T03170156  RH  038%=      5-min Rain = 0
KES1 252346Z 15011KT 32/16 A2991 RMK A01 T03170155  RH  038%=      5-min Rain = 0
KES1 252347Z 15008KT 32/16 A2991 RMK A01 T03170155  RH  038%=      5-min Rain = 0
KES1 252348Z 14008KT 32/16 A2991 RMK A01 T03160155  RH  038%=      5-min Rain = 0
KES1 252349Z 15009KT 32/15 A2991 RMK A01 T03160154  RH  038%=      5-min Rain = 0
KES1 252350Z 15009KT 32/15 A2991 RMK A01 T03160154  RH  038%=      5-min Rain = 0
KES1 252351Z 15008G13KT 32/16 A2991 RMK A01 T03160155  RH  038%=      5-min Rain = 0
KES1 252352Z 15008KT 32/16 A2991 RMK A01 T03150155  RH  038%=      5-min Rain = 0
KES1 252353Z 15007KT 32/16 A2992 RMK A01 T03150155  RH  038%=      5-min Rain = 0
KES1 252354Z 14008KT 31/16 A2992 RMK A01 T03140155  RH  038%=      5-min Rain = 0
KES1 252355Z 15009KT 31/16 A2992 RMK A01 T03140156  RH  039%=      5-min Rain = 0
KES1 252356Z 14007KT 31/16 A2992 RMK A01 T03140157  RH  039%=      5-min Rain = 0
KES1 252357Z 15008KT 31/16 A2992 RMK A01 T03140158  RH  039%=      5-min Rain = 0
KES1 252358Z 14009KT 31/16 A2992 RMK A01 T03140159  RH  039%=      5-min Rain = 0
KES1 252359Z 13007KT 31/16 A2992 RMK A01 T03140160  RH  039%=      5-min Rain = 0
KES1 260000Z 14007KT 31/16 A2992 RMK A01 T03140160  RH  040%=      5-min Rain = 0
KES1 260001Z 13007KT 31/16 A2992 RMK A01 T03140160  RH  039%=      5-min Rain = 0
KES1 260002Z 13007KT 31/16 A2992 RMK A01 T03140160  RH  040%=      5-min Rain = 0
KES1 260003Z 14007KT 31/16 A2992 RMK A01 T03130160  RH  040%=      5-min Rain = 0
KES1 260004Z 13006KT 31/16 A2992 RMK A01 T03130160  RH  040%=      5-min Rain = 0
KES1 260005Z 12007KT 31/16 A2993 RMK A01 T03120160  RH  040%=      5-min Rain = 0
KES1 260006Z 13006KT 31/16 A2993 RMK A01 T03120161  RH  040%=      5-min Rain = 0
KES1 260007Z 13007KT 31/16 A2992 RMK A01 T03120161  RH  040%=      5-min Rain = 0
KES1 260008Z 12008KT 31/16 A2992 RMK A01 T03120161  RH  040%=      5-min Rain = 0
KES1 260009Z 13007KT 31/16 A2992 RMK A01 T03120161  RH  040%=      5-min Rain = 0
KES1 260010Z 14009KT 31/16 A2992 RMK A01 T03110161  RH  041%=      5-min Rain = 0
KES1 260011Z 14008KT 31/16 A2992 RMK A01 T03110161  RH  040%=      5-min Rain = 0
KES1 260012Z 13008KT 31/16 A2992 RMK A01 T03110160  RH  040%=      5-min Rain = 0
KES1 260013Z 14008KT 31/16 A2992 RMK A01 T03110160  RH  040%=      5-min Rain = 0
KES1 260014Z 14008KT 31/16 A2992 RMK A01 T03110160  RH  040%=      5-min Rain = 0
KES1 260015Z 14007KT 31/16 A2993 RMK A01 T03110160  RH  040%=      5-min Rain = 0
KES1 260016Z 14007KT 31/16 A2993 RMK A01 T03110159  RH  040%=      5-min Rain = 0
KES1 260017Z 14005KT 31/16 A2993 RMK A01 T03110160  RH  040%=      5-min Rain = 0
KES1 260018Z 14005KT 31/16 A2993 RMK A01 T03100160  RH  040%=      5-min Rain = 0
KES1 260019Z 14006KT 31/16 A2993 RMK A01 T03100160  RH  040%=      5-min Rain = 0
KES1 260020Z 14007KT 31/16 A2993 RMK A01 T03100160  RH  040%=      5-min Rain = 0
KES1 260021Z 14005KT 31/16 A2994 RMK A01 T03100160  RH  040%=      5-min Rain = 0
KES1 260022Z 13004KT 31/16 A2994 RMK A01 T03090160  RH  041%=      5-min Rain = 0
KES1 260023Z 14004KT 31/16 A2994 RMK A01 T03090160  RH  041%=      5-min Rain = 0
KES1 260024Z 14004KT 31/16 A2994 RMK A01 T03090160  RH  041%=      5-min Rain = 0
KES1 260025Z 13004KT 31/16 A2994 RMK A01 T03090160  RH  041%=      5-min Rain = 0
KES1 260026Z 13005KT 31/16 A2994 RMK A01 T03080160  RH  041%=      5-min Rain = 0
KES1 260027Z 13005KT 31/16 A2994 RMK A01 T03080160  RH  041%=      5-min Rain = 0
KES1 260028Z 13004KT 31/16 A2994 RMK A01 T03080160  RH  041%=      5-min Rain = 0
KES1 260029Z 13004KT 31/16 A2994 RMK A01 T03070160  RH  041%=      5-min Rain = 0
KES1 260030Z 12003KT 31/16 A2994 RMK A01 T03070161  RH  041%=      5-min Rain = 0
KES1 260031Z 12003KT 31/16 A2994 RMK A01 T03070161  RH  041%=      5-min Rain = 0
KES1 260032Z 12003KT 31/16 A2994 RMK A01 T03060161  RH  042%=      5-min Rain = 0
KES1 260033Z 12003KT 31/16 A2994 RMK A01 T03060161  RH  042%=      5-min Rain = 0
KES1 260034Z 12004KT 31/16 A2994 RMK A01 T03050161  RH  042%=      5-min Rain = 0
KES1 260035Z 12004KT 31/16 A2994 RMK A01 T03050161  RH  042%=      5-min Rain = 0
KES1 260036Z 13004KT 31/16 A2994 RMK A01 T03050161  RH  042%=      5-min Rain = 0
KES1 260037Z 13004KT 31/16 A2994 RMK A01 T03050162  RH  042%=      5-min Rain = 0
KES1 260038Z 13004KT 30/16 A2994 RMK A01 T03040162  RH  042%=      5-min Rain = 0
KES1 260039Z 13004KT 30/16 A2994 RMK A01 T03040162  RH  042%=      5-min Rain = 0
KES1 260040Z 14003KT 30/16 A2995 RMK A01 T03040161  RH  042%=      5-min Rain = 0
KES1 260041Z 14003KT 30/16 A2995 RMK A01 T03040161  RH  042%=      5-min Rain = 0
KES1 260042Z 15002KT 30/16 A2995 RMK A01 T03040161  RH  042%=      5-min Rain = 0
KES1 260043Z 16002KT 30/16 A2996 RMK A01 T03040162  RH  042%=      5-min Rain = 0
KES1 260044Z 16002KT 30/16 A2996 RMK A01 T03040162  RH  042%=      5-min Rain = 0
KES1 260045Z 17002KT 30/16 A2996 RMK A01 T03040162  RH  042%=      5-min Rain = 0
KES1 260046Z 16002KT 30/16 A2996 RMK A01 T03040162  RH  042%=      5-min Rain = 0
KES1 260047Z 16002KT 30/16 A2996 RMK A01 T03040162  RH  042%=      5-min Rain = 0
KES1 260048Z 17002KT 30/16 A2996 RMK A01 T03040161  RH  042%=      5-min Rain = 0
KES1 260049Z 16001KT 30/16 A2997 RMK A01 T03040161  RH  042%=      5-min Rain = 0
KES1 260050Z 18001KT 30/16 A2997 RMK A01 T03040161  RH  042%=      5-min Rain = 0
KES1 260051Z 20001KT 30/16 A2997 RMK A01 T03040161  RH  042%=      5-min Rain = 0
KES1 260052Z 23001KT 30/16 A2997 RMK A01 T03040161  RH  042%=      5-min Rain = 0
KES1 260053Z 25002KT 30/16 A2997 RMK A01 T03040162  RH  042%=      5-min Rain = 0
KES1 260054Z 27003KT 30/16 A2998 RMK A01 T03030162  RH  043%=      5-min Rain = 0
KES1 260055Z 28004KT 30/16 A2998 RMK A01 T03020164  RH  043%=      5-min Rain = 0
KES1 260056Z 29007KT 30/17 A2999 RMK A01 T03010165  RH  044%=      5-min Rain = 0
KES1 260057Z 29009KT 30/17 A2999 RMK A01 T02990165  RH  044%=      5-min Rain = 0
KES1 260058Z 30011KT 30/17 A30 RMK A01 T02970165  RH  045%=      5-min Rain = 0
KES1 260059Z 31012KT 30/16 A30 RMK A01 T02960164  RH  045%=      5-min Rain = 0
KES1 260100Z 31013KT 30/16 A30 RMK A01 T02970158  RH  043%=      5-min Rain = 0
KES1 260101Z 30016KT 30/14 A30 RMK A01 T02950143  RH  040%=      5-min Rain = 0
KES1 260102Z 30017G22KT 29/14 A30 RMK A01 T02910135  RH  038%=      5-min Rain = 0
KES1 260103Z 30016G21KT 29/13 A30 RMK A01 T02880132  RH  038%=      5-min Rain = 0
KES1 260104Z 30014KT 29/13 A30 RMK A01 T02850131  RH  039%=      5-min Rain = 0
KES1 260105Z 32014KT 28/13 A30 RMK A01 T02840132  RH  039%=      5-min Rain = 0
KES1 260106Z 32014KT 28/13 A30 RMK A01 T02830131  RH  039%=      5-min Rain = 0
KES1 260107Z 32013KT 28/13 A3001 RMK A01 T02830132  RH  039%=      5-min Rain = 0
KES1 260108Z 32013KT 28/13 A3001 RMK A01 T02830131  RH  039%=      5-min Rain = 0
KES1 260109Z 33015KT 28/13 A3001 RMK A01 T02830131  RH  039%=      5-min Rain = 0
KES1 260110Z 32019G25KT 28/13 A3001 RMK A01 T02840131  RH  039%=      5-min Rain = 0
KES1 260111Z 31022KT 29/13 A3002 RMK A01 T02850129  RH  038%=      5-min Rain = 0
KES1 260112Z 31022KT 29/13 A3002 RMK A01 T02850128  RH  038%=      5-min Rain = 0
KES1 260113Z 31018KT 28/13 A3002 RMK A01 T02840127  RH  038%=      5-min Rain = 0
KES1 260114Z 32016KT 28/13 A3002 RMK A01 T02820127  RH  038%=      5-min Rain = 0
KES1 260115Z 32017KT 28/13 A3002 RMK A01 T02810126  RH  038%=      5-min Rain = 0
KES1 260116Z 33014KT 28/13 A3002 RMK A01 T02800126  RH  039%=      5-min Rain = 0
KES1 260117Z 33016G21KT 28/13 A3002 RMK A01 T02780126  RH  039%=      5-min Rain = 0
KES1 260118Z 33019KT 28/13 A3002 RMK A01 T02770127  RH  039%=      5-min Rain = 0
KES1 260119Z 33017KT 28/13 A3002 RMK A01 T02760127  RH  040%=      5-min Rain = 0
KES1 260120Z 33017G22KT 28/13 A3002 RMK A01 T02760129  RH  040%=      5-min Rain = 0
KES1 260121Z 33018G23KT 28/13 A3002 RMK A01 T02750130  RH  041%=      5-min Rain = 0
KES1 260122Z 33014KT 27/13 A3002 RMK A01 T02730131  RH  041%=      5-min Rain = 0
KES1 260123Z 33011KT 27/13 A3002 RMK A01 T02730132  RH  042%=      5-min Rain = 0
KES1 260124Z 33017KT 27/13 A3002 RMK A01 T02720133  RH  042%=      5-min Rain = 0
KES1 260125Z 34016G21KT 27/13 A3002 RMK A01 T02720133  RH  042%=      5-min Rain = 0
KES1 260126Z 35021KT 27/13 A3002 RMK A01 T02720133  RH  042%=      5-min Rain = 0
KES1 260127Z 34017KT 27/13 A3002 RMK A01 T02720132  RH  042%=      5-min Rain = 0
KES1 260128Z 34017KT 27/13 A3002 RMK A01 T02710131  RH  042%=      5-min Rain = 0
KES1 260129Z 35018G24KT 27/13 A3002 RMK A01 T02710131  RH  042%=      5-min Rain = 0
KES1 260130Z 34018KT 27/13 A3002 RMK A01 T02710132  RH  042%=      5-min Rain = 0
KES1 260131Z 34018KT 27/13 A3002 RMK A01 T02710132  RH  042%=      5-min Rain = 0
KES1 260132Z 34019KT 27/13 A3002 RMK A01 T02710131  RH  042%=      5-min Rain = 0
KES1 260133Z 34022KT 27/13 A3003 RMK A01 T02700132  RH  042%=      5-min Rain = 0
KES1 260134Z 34014KT 27/13 A3003 RMK A01 T02700132  RH  043%=      5-min Rain = 0
KES1 260135Z 34015KT 27/13 A3002 RMK A01 T02690132  RH  043%=      5-min Rain = 0
KES1 260136Z 33017KT 27/13 A3003 RMK A01 T02680132  RH  043%=      5-min Rain = 0
KES1 260137Z 33016G21KT 27/13 A3003 RMK A01 T02670132  RH  043%=      5-min Rain = 0
KES1 260138Z 34015KT 27/13 A3003 RMK A01 T02670132  RH  043%=      5-min Rain = 0
KES1 260139Z 34015KT 27/13 A3003 RMK A01 T02660132  RH  044%=      5-min Rain = 0
KES1 260140Z 34015G22KT 27/13 A3003 RMK A01 T02660131  RH  043%=      5-min Rain = 0
KES1 260141Z 34016KT 27/13 A3003 RMK A01 T02660131  RH  043%=      5-min Rain = 0
KES1 260142Z 34014G22KT 27/13 A3003 RMK A01 T02670130  RH  043%=      5-min Rain = 0
KES1 260143Z 34019KT 27/13 A3004 RMK A01 T02680129  RH  042%=      5-min Rain = 0
KES1 260144Z 34016KT 27/13 A3004 RMK A01 T02690129  RH  042%=      5-min Rain = 0
KES1 260145Z 34016KT 27/13 A3004 RMK A01 T02690129  RH  042%=      5-min Rain = 0
KES1 260146Z 34017G22KT 27/13 A3004 RMK A01 T02690130  RH  042%=      5-min Rain = 0
KES1 260147Z 35015KT 27/13 A3004 RMK A01 T02690129  RH  042%=      5-min Rain = 0
KES1 260148Z 34014KT 27/13 A3004 RMK A01 T02690129  RH  042%=      5-min Rain = 0
KES1 260149Z 35017KT 27/13 A3004 RMK A01 T02690128  RH  042%=      5-min Rain = 0
KES1 260150Z 35015KT 27/13 A3004 RMK A01 T02700128  RH  042%=      5-min Rain = 0
KES1 260151Z 35015G21KT 27/13 A3004 RMK A01 T02700129  RH  042%=      5-min Rain = 0
KES1 260152Z 36015KT 27/13 A3004 RMK A01 T02700131  RH  042%=      5-min Rain = 0
KES1 260153Z 36015G21KT 27/13 A3005 RMK A01 T02700132  RH  043%=      5-min Rain = 0
KES1 260154Z 36017KT 27/13 A3005 RMK A01 T02690132  RH  043%=      5-min Rain = 0
KES1 260155Z 35016G23KT 27/13 A3005 RMK A01 T02690133  RH  043%=      5-min Rain = 0
KES1 260156Z 36012G18KT 27/14 A3005 RMK A01 T02680137  RH  044%=      5-min Rain = 0
KES1 260157Z 00017G22KT 27/14 A3005 RMK A01 T02660136  RH  045%=      5-min Rain = 0
KES1 260158Z 36017KT 27/14 A3005 RMK A01 T02660135  RH  045%=      5-min Rain = 0
KES1 260159Z 36017KT 27/14 A3005 RMK A01 T02650137  RH  045%=      5-min Rain = 0
KES1 260200Z 35016KT 26/14 A3005 RMK A01 T02630137  RH  046%=      5-min Rain = 0
KES1 260201Z 36018G25KT 26/14 A3005 RMK A01 T02620137  RH  046%=      5-min Rain = 0
KES1 260202Z 36018KT 26/14 A3005 RMK A01 T02610135  RH  046%=      5-min Rain = 0
KES1 260203Z 36016G21KT 26/14 A3005 RMK A01 T02610136  RH  046%=      5-min Rain = 0
KES1 260204Z 01014G19KT 26/14 A3005 RMK A01 T02600137  RH  046%=      5-min Rain = 0
KES1 260205Z 00016G22KT 26/14 A3005 RMK A01 T02590137  RH  047%=      5-min Rain = 0
KES1 260206Z 00016G21KT 26/14 A3005 RMK A01 T02580136  RH  047%=      5-min Rain = 0
KES1 260207Z 01016G21KT 26/14 A3006 RMK A01 T02580137  RH  047%=      5-min Rain = 0
KES1 260208Z 01016KT 26/14 A3006 RMK A01 T02570139  RH  048%=      5-min Rain = 0
KES1 260209Z 00020G27KT 26/14 A3006 RMK A01 T02570138  RH  048%=      5-min Rain = 0
KES1 260210Z 00017KT 26/14 A3006 RMK A01 T02560136  RH  047%=      5-min Rain = 0
KES1 260211Z 00019G24KT 26/14 A3006 RMK A01 T02570136  RH  047%=      5-min Rain = 0
KES1 260212Z 00014G19KT 26/14 A3005 RMK A01 T02570135  RH  047%=      5-min Rain = 0
KES1 260213Z 35017G22KT 26/14 A3005 RMK A01 T02570136  RH  047%=      5-min Rain = 0
KES1 260214Z 00016KT 26/14 A3006 RMK A01 T02570135  RH  047%=      5-min Rain = 0
KES1 260215Z 00015G20KT 26/14 A3006 RMK A01 T02570135  RH  047%=      5-min Rain = 0
KES1 260216Z 01017G23KT 26/14 A3006 RMK A01 T02570136  RH  047%=      5-min Rain = 0
KES1 260217Z 00016KT 26/14 A3006 RMK A01 T02570135  RH  047%=      5-min Rain = 0
KES1 260218Z 01017G22KT 26/14 A3006 RMK A01 T02570135  RH  047%=      5-min Rain = 0
KES1 260219Z 00024G30KT 26/13 A3006 RMK A01 T02570134  RH  046%=      5-min Rain = 0
KES1 260220Z 36026G33KT 26/13 A3006 RMK A01 T02570134  RH  047%=      5-min Rain = 0
KES1 260221Z 00020KT 26/14 A3006 RMK A01 T02550139  RH  048%=      5-min Rain = 0
KES1 260222Z 00021G28KT 25/14 A3006 RMK A01 T02520140  RH  050%=      5-min Rain = 0
KES1 260223Z 36024G29KT 25/14 A3006 RMK A01 T02490142  RH  051%=      5-min Rain = 0
KES1 260224Z 36024G29KT 25/14 A3006 RMK A01 T02470142  RH  052%=      5-min Rain = 0
KES1 260225Z 36027G33KT 25/14 A3006 RMK A01 T02450143  RH  053%=      5-min Rain = 0
KES1 260226Z 36027G34KT 24/14 A3006 RMK A01 T02440143  RH  053%=      5-min Rain = 0
KES1 260227Z 35028G38KT 24/14 A3006 RMK A01 T02430142  RH  053%=      5-min Rain = 0
KES1 260228Z 00027G32KT 24/15 A3006 RMK A01 T02410145  RH  055%=      5-min Rain = 0
KES1 260229Z 01029G36KT 24/14 A3005 RMK A01 T02390142  RH  055%=      5-min Rain = 0
KES1 260230Z 00029G37KT 24/14 A3005 RMK A01 T02380142  RH  055%=      5-min Rain = 0
KES1 260231Z 01027G33KT 24/14 A3005 RMK A01 T02370142  RH  055%=      5-min Rain = 0
KES1 260232Z 01025G31KT 24/14 A3005 RMK A01 T02350143  RH  056%=      5-min Rain = 0
KES1 260233Z 36026G36KT 23/14 A3005 RMK A01 T02340142  RH  056%=      5-min Rain = 0
KES1 260234Z 01028G37KT 23/14 A3005 RMK A01 T02340143  RH  057%=      5-min Rain = 0
KES1 260235Z 01023G28KT 23/14 A3005 RMK A01 T02340144  RH  057%=      5-min Rain = 0
KES1 260236Z 01025G30KT 23/14 A3005 RMK A01 T02330143  RH  057%=      5-min Rain = 0
KES1 260237Z 01025KT 23/14 A3005 RMK A01 T02330142  RH  057%=      5-min Rain = 0
KES1 260238Z 01023G28KT 23/14 A3006 RMK A01 T02340141  RH  056%=      5-min Rain = 0
KES1 260239Z 00025G31KT 24/14 A3006 RMK A01 T02360139  RH  055%=      5-min Rain = 0
KES1 260240Z 01021KT 24/14 A3006 RMK A01 T02390136  RH  053%=      5-min Rain = 0
KES1 260241Z 01020KT 24/14 A3006 RMK A01 T02420135  RH  051%=      5-min Rain = 0
KES1 260242Z 01019G24KT 24/14 A3006 RMK A01 T02430138  RH  052%=      5-min Rain = 0
KES1 260243Z 00016KT 24/14 A3007 RMK A01 T02410137  RH  052%=      5-min Rain = 0
KES1 260244Z 00016KT 24/14 A3007 RMK A01 T02430135  RH  051%=      5-min Rain = 0
KES1 260245Z 00015KT 24/13 A3007 RMK A01 T02440133  RH  050%=      5-min Rain = 0
KES1 260246Z 01018KT 24/13 A3007 RMK A01 T02440134  RH  050%=      5-min Rain = 0
KES1 260247Z 02015G21KT 24/14 A3007 RMK A01 T02440138  RH  052%=      5-min Rain = 0
KES1 260248Z 01016G22KT 24/14 A3007 RMK A01 T02410140  RH  053%=      5-min Rain = 0
KES1 260249Z 02018G23KT 24/14 A3007 RMK A01 T02380142  RH  055%=      5-min Rain = 0
KES1 260250Z 01019KT 24/15 A3007 RMK A01 T02350146  RH  057%=      5-min Rain = 0
KES1 260251Z 01017KT 23/15 A3007 RMK A01 T02290150  RH  061%=      5-min Rain = 0
KES1 260252Z 01019KT 23/15 A3007 RMK A01 T02250151  RH  063%=      5-min Rain = 0
KES1 260253Z 01018KT 22/15 A3007 RMK A01 T02230150  RH  063%=      5-min Rain = 0
KES1 260254Z 00018KT 22/14 A3006 RMK A01 T02240144  RH  061%=      5-min Rain = 0
KES1 260255Z 00019KT 23/14 A3006 RMK A01 T02280135  RH  056%=      5-min Rain = 0
KES1 260256Z 00018KT 24/13 A3006 RMK A01 T02350131  RH  052%=      5-min Rain = 0
KES1 260257Z 00019KT 24/12 A3006 RMK A01 T02400124  RH  048%=      5-min Rain = 0.01
KES1 260258Z 00019KT 25/12 A3006 RMK A01 T02490118  RH  044%=      5-min Rain = 0
KES1 260259Z 00016KT 25/13 A3006 RMK A01 T02500131  RH  048%=      5-min Rain = 0
KES1 260300Z 02012KT 24/13 A3006 RMK A01 T02440134  RH  050%=      5-min Rain = 0
KES1 260301Z 36013KT 24/13 A3006 RMK A01 T02380132  RH  051%=      5-min Rain = 0
KES1 260302Z 35013KT 24/13 A3006 RMK A01 T02390127  RH  049%=      5-min Rain = 0
KES1 260303Z 34014KT 24/13 A3007 RMK A01 T02430127  RH  048%=      5-min Rain = 0
KES1 260304Z 34017KT 24/13 A3007 RMK A01 T02440128  RH  048%=      5-min Rain = 0
KES1 260305Z 33018KT 25/12 A3007 RMK A01 T02480117  RH  044%=      5-min Rain = 0
KES1 260306Z 33017KT 26/12 A3007 RMK A01 T02550118  RH  042%=      5-min Rain = 0
KES1 260307Z 33015KT 26/12 A3007 RMK A01 T02580123  RH  043%=      5-min Rain = 0
KES1 260308Z 34015KT 26/12 A3008 RMK A01 T02560121  RH  043%=      5-min Rain = 0
KES1 260309Z 35010KT 26/11 A3008 RMK A01 T02590114  RH  040%=      5-min Rain = 0
KES1 260310Z 33010KT 26/12 A3008 RMK A01 T02610122  RH  042%=      5-min Rain = 0.01
KES1 260311Z 32009KT 26/11 A3008 RMK A01 T02600114  RH  040%=      5-min Rain = 0
KES1 260312Z 31006KT 26/11 A3009 RMK A01 T02640113  RH  039%=      5-min Rain = 0
KES1 260313Z 30009KT 26/14 A3009 RMK A01 T02600143  RH  048%=      5-min Rain = 0.01
KES1 260314Z 31006KT 25/14 A3009 RMK A01 T02480136  RH  050%=      5-min Rain = 0
KES1 260315Z 30008KT 24/13 A3009 RMK A01 T02440133  RH  050%=      5-min Rain = 0
KES1 260316Z 30007KT 24/14 A3009 RMK A01 T02420140  RH  053%=      5-min Rain = 0
KES1 260317Z 29007KT 24/12 A3009 RMK A01 T02400115  RH  046%=      5-min Rain = 0.01
KES1 260318Z 24003KT 25/11 A3009 RMK A01 T02510110  RH  041%=      5-min Rain = 0
KES1 260319Z 19003KT 26/11 A3008 RMK A01 T02560110  RH  040%=      5-min Rain = 0
KES1 260320Z 23001KT 26/09 A3008 RMK A01 T02620091  RH  034%=      5-min Rain = 0
KES1 260321Z 25001KT 27/10 A3008 RMK A01 T02690099  RH  034%=      5-min Rain = 0
KES1 260322Z 22003KT 27/12 A3008 RMK A01 T02710115  RH  038%=      5-min Rain = 0
KES1 260323Z 23003KT 27/12 A3008 RMK A01 T02680118  RH  039%=      5-min Rain = 0
KES1 260324Z 24003KT 27/11 A3008 RMK A01 T02650107  RH  037%=      5-min Rain = 0
KES1 260325Z 23004KT 26/13 A3008 RMK A01 T02630130  RH  044%=      5-min Rain = 0
KES1 260326Z 23004KT 26/13 A3008 RMK A01 T02580128  RH  044%=      5-min Rain = 0
KES1 260327Z 24004KT 26/12 A3008 RMK A01 T02560124  RH  044%=      5-min Rain = 0
KES1 260328Z 23004KT 26/13 A3008 RMK A01 T02550128  RH  045%=      5-min Rain = 0
KES1 260329Z 22005KT 25/15 A3008 RMK A01 T02520146  RH  052%=      5-min Rain = 0.01
KES1 260330Z 23004KT 25/16 A3008 RMK A01 T02480161  RH  059%=      5-min Rain = 0
KES1 260331Z 23002KT 24/16 A3008 RMK A01 T02400155  RH  059%=      5-min Rain = 0
KES1 260332Z 18001KT 23/15 A3008 RMK A01 T02340147  RH  058%=      5-min Rain = 0
KES1 260333Z 21001KT 23/13 A3008 RMK A01 T02320126  RH  051%=      5-min Rain = 0
KES1 260334Z 29001KT 24/14 A3008 RMK A01 T02380136  RH  053%=      5-min Rain = 0
KES1 260335Z 27005KT 24/14 A3008 RMK A01 T02390141  RH  054%=      5-min Rain = 0
KES1 260336Z 26006KT 24/16 A3007 RMK A01 T02390155  RH  060%=      5-min Rain = 0
KES1 260337Z 25006KT 24/15 A3007 RMK A01 T02350154  RH  061%=      5-min Rain = 0
KES1 260338Z 24007KT 23/16 A3007 RMK A01 T02310156  RH  063%=      5-min Rain = 0
KES1 260339Z 23008KT 23/15 A3006 RMK A01 T02280152  RH  062%=      5-min Rain = 0
KES1 260340Z 23008KT 23/15 A3006 RMK A01 T02280146  RH  060%=      5-min Rain = 0
KES1 260341Z 22009KT 23/14 A3005 RMK A01 T02290140  RH  057%=      5-min Rain = 0
KES1 260342Z 21009KT 23/13 A3004 RMK A01 T02340134  RH  053%=      5-min Rain = 0
KES1 260343Z 21010KT 24/13 A3004 RMK A01 T02390132  RH  051%=      5-min Rain = 0
KES1 260344Z 20010KT 24/13 A3003 RMK A01 T02420132  RH  050%=      5-min Rain = 0
KES1 260345Z 20010KT 24/13 A3003 RMK A01 T02440129  RH  048%=      5-min Rain = 0
KES1 260346Z 20010KT 25/13 A3003 RMK A01 T02470133  RH  049%=      5-min Rain = 0
KES1 260347Z 19011KT 25/14 A3003 RMK A01 T02470136  RH  050%=      5-min Rain = 0
KES1 260348Z 19011KT 25/14 A3002 RMK A01 T02450138  RH  051%=      5-min Rain = 0
KES1 260349Z 18010KT 24/14 A3002 RMK A01 T02420141  RH  053%=      5-min Rain = 0
KES1 260350Z 18010KT 24/14 A3002 RMK A01 T02390139  RH  054%=      5-min Rain = 0
KES1 260351Z 18010KT 24/14 A3002 RMK A01 T02380136  RH  053%=      5-min Rain = 0
KES1 260352Z 18009KT 24/13 A3001 RMK A01 T02390134  RH  052%=      5-min Rain = 0
KES1 260353Z 17009KT 24/13 A3001 RMK A01 T02390134  RH  052%=      5-min Rain = 0
KES1 260354Z 17009KT 24/13 A3001 RMK A01 T02400130  RH  050%=      5-min Rain = 0
KES1 260355Z 18008KT 24/13 A3001 RMK A01 T02420129  RH  049%=      5-min Rain = 0
KES1 260356Z 17009KT 24/13 A3001 RMK A01 T02440125  RH  047%=      5-min Rain = 0
KES1 260357Z 18009KT 25/12 A3001 RMK A01 T02470124  RH  046%=      5-min Rain = 0
KES1 260358Z 18009KT 25/13 A30 RMK A01 T02500126  RH  046%=      5-min Rain = 0
KES1 260359Z 18009KT 25/13 A30 RMK A01 T02510125  RH  045%=      5-min Rain = 0
KES1 260400Z 18007KT 25/12 A30 RMK A01 T02520124  RH  045%=      5-min Rain = 0
KES1 260401Z 18008KT 25/12 A30 RMK A01 T02530124  RH  044%=      5-min Rain = 0
KES1 260402Z 18010KT 25/12 A30 RMK A01 T02540121  RH  043%=      5-min Rain = 0
KES1 260403Z 18010KT 26/12 A30 RMK A01 T02570121  RH  043%=      5-min Rain = 0
KES1 260404Z 18010KT 26/12 A2999 RMK A01 T02590119  RH  041%=      5-min Rain = 0
KES1 260405Z 18010KT 26/12 A2999 RMK A01 T02610117  RH  041%=      5-min Rain = 0
KES1 260406Z 18011KT 26/12 A2999 RMK A01 T02630115  RH  040%=      5-min Rain = 0
KES1 260407Z 18011KT 27/12 A2999 RMK A01 T02650115  RH  039%=      5-min Rain = 0
KES1 260408Z 18011KT 27/12 A2999 RMK A01 T02660115  RH  039%=      5-min Rain = 0
KES1 260409Z 18010KT 27/11 A2999 RMK A01 T02660113  RH  038%=      5-min Rain = 0
KES1 260410Z 18009KT 27/11 A2998 RMK A01 T02670114  RH  038%=      5-min Rain = 0
KES1 260411Z 18009KT 27/11 A2998 RMK A01 T02670113  RH  038%=      5-min Rain = 0
KES1 260412Z 18009KT 27/12 A2998 RMK A01 T02670115  RH  039%=      5-min Rain = 0
KES1 260413Z 18008KT 27/12 A2998 RMK A01 T02670115  RH  039%=      5-min Rain = 0
KES1 260414Z 17009KT 27/11 A2998 RMK A01 T02670108  RH  037%=      5-min Rain = 0
KES1 260415Z 16007KT 27/11 A2998 RMK A01 T02690111  RH  037%=      5-min Rain = 0
KES1 260416Z 16006KT 27/12 A2998 RMK A01 T02690117  RH  039%=      5-min Rain = 0
KES1 260417Z 15006KT 27/13 A2998 RMK A01 T02670126  RH  042%=      5-min Rain = 0
KES1 260418Z 14005KT 26/13 A2998 RMK A01 T02620131  RH  044%=      5-min Rain = 0
KES1 260419Z 14005KT 26/13 A2997 RMK A01 T02570130  RH  045%=      5-min Rain = 0
KES1 260420Z 15005KT 26/13 A2997 RMK A01 T02550132  RH  046%=      5-min Rain = 0
KES1 260421Z 15007KT 25/13 A2997 RMK A01 T02530131  RH  047%=      5-min Rain = 0
KES1 260422Z 14007KT 25/13 A2997 RMK A01 T02520125  RH  045%=      5-min Rain = 0
KES1 260423Z 14008KT 25/13 A2997 RMK A01 T02520129  RH  046%=      5-min Rain = 0
KES1 260424Z 14008KT 25/13 A2997 RMK A01 T02510132  RH  048%=      5-min Rain = 0
KES1 260425Z 14008KT 25/13 A2997 RMK A01 T02510125  RH  046%=      5-min Rain = 0
KES1 260426Z 14007KT 25/12 A2997 RMK A01 T02520119  RH  043%=      5-min Rain = 0
KES1 260427Z 15007KT 25/12 A2997 RMK A01 T02540123  RH  044%=      5-min Rain = 0
KES1 260428Z 16009KT 25/12 A2997 RMK A01 T02540122  RH  044%=      5-min Rain = 0
KES1 260429Z 16009KT 26/12 A2997 RMK A01 T02550121  RH  043%=      5-min Rain = 0
KES1 260430Z 18009KT 26/12 A2997 RMK A01 T02550121  RH  043%=      5-min Rain = 0
KES1 260431Z 17010KT 26/12 A2997 RMK A01 T02560121  RH  043%=      5-min Rain = 0
KES1 260432Z 18012KT 26/12 A2998 RMK A01 T02570124  RH  044%=      5-min Rain = 0
KES1 260433Z 19014KT 26/13 A2998 RMK A01 T02560126  RH  045%=      5-min Rain = 0
KES1 260434Z 19015KT 26/12 A2998 RMK A01 T02560120  RH  043%=      5-min Rain = 0
KES1 260435Z 19015G21KT 26/13 A2998 RMK A01 T02580126  RH  044%=      5-min Rain = 0
KES1 260436Z 18015KT 26/13 A2998 RMK A01 T02560131  RH  046%=      5-min Rain = 0
KES1 260437Z 18014KT 25/13 A2998 RMK A01 T02530133  RH  047%=      5-min Rain = 0
KES1 260438Z 18012KT 25/13 A2998 RMK A01 T02510134  RH  048%=      5-min Rain = 0
KES1 260439Z 19011KT 25/14 A2998 RMK A01 T02490135  RH  049%=      5-min Rain = 0.01
KES1 260440Z 19011G16KT 25/14 A2999 RMK A01 T02470135  RH  050%=      5-min Rain = 0
KES1 260441Z 19012KT 25/13 A2999 RMK A01 T02460133  RH  049%=      5-min Rain = 0
KES1 260442Z 19010KT 25/13 A2999 RMK A01 T02460134  RH  050%=      5-min Rain = 0
KES1 260443Z 19010KT 25/14 A2999 RMK A01 T02450135  RH  050%=      5-min Rain = 0
KES1 260444Z 19011KT 24/14 A2998 RMK A01 T02440135  RH  051%=      5-min Rain = 0
KES1 260445Z 19010KT 24/14 A2998 RMK A01 T02430136  RH  051%=      5-min Rain = 0
KES1 260446Z 19012KT 24/14 A2998 RMK A01 T02420136  RH  051%=      5-min Rain = 0
KES1 260447Z 19009KT 24/14 A2998 RMK A01 T02420136  RH  052%=      5-min Rain = 0
KES1 260448Z 19009KT 24/14 A2998 RMK A01 T02410137  RH  052%=      5-min Rain = 0
KES1 260449Z 20009KT 24/14 A2998 RMK A01 T02400137  RH  052%=      5-min Rain = 0
KES1 260450Z 20010KT 24/14 A2998 RMK A01 T02390136  RH  052%=      5-min Rain = 0
KES1 260451Z 20009KT 24/14 A2998 RMK A01 T02390136  RH  052%=      5-min Rain = 0
KES1 260452Z 20009KT 24/14 A2998 RMK A01 T02390138  RH  053%=      5-min Rain = 0
KES1 260453Z 20009KT 24/14 A2998 RMK A01 T02390137  RH  053%=      5-min Rain = 0
KES1 260454Z 19012KT 24/14 A2998 RMK A01 T02390136  RH  052%=      5-min Rain = 0
KES1 260455Z 19012KT 24/13 A2998 RMK A01 T02400134  RH  051%=      5-min Rain = 0
KES1 260456Z 19012KT 24/13 A2998 RMK A01 T02410134  RH  051%=      5-min Rain = 0
KES1 260457Z 19013KT 24/13 A2998 RMK A01 T02430133  RH  050%=      5-min Rain = 0
KES1 260458Z 19012G17KT 25/13 A2998 RMK A01 T02450133  RH  050%=      5-min Rain = 0
KES1 260459Z 19013KT 25/13 A2998 RMK A01 T02470132  RH  048%=      5-min Rain = 0

Page generated in 0.1304 seconds.